AF457 / F-HTYA 7700 Squawk Report (2nd of August, 2020)

Aircraft A359 Reg No. F-HTYA Age 1 years old
Model A350 Jet engines 2 First flight 27-08-19
Registered 26-09-19 Rollout N/A Delivered 27-09-19
Construction No. 331 Line No. N/A Series 941
ADSHEX 39CF00 Airline name Air France Owner N/A
Airfield based Paris-Charles de Gaulle~Val-d'Oise~F First tracked N/A

Flight history for F-HTYA

Route Flight No Date Playback
Charles De Gaulle (CDG) - Indira Gandhi Intl (DEL) AF226 2020-09-27 16:33:00
Indira Gandhi Intl (DEL) - Charles De Gaulle (CDG) AF225 2020-09-27 03:27:00
Charles De Gaulle (CDG) - Indira Gandhi Intl (DEL) AF226 2020-09-26 16:37:00
Indira Gandhi Intl (DEL) - Charles De Gaulle (CDG) AF225 2020-09-26 08:32:00
Charles De Gaulle (CDG) - Indira Gandhi Intl (DEL) AF226 2020-09-25 19:09:00
Indira Gandhi Intl (DEL) - Charles De Gaulle (CDG) AF225 2020-09-25 08:34:00
Charles De Gaulle (CDG) - Indira Gandhi Intl (DEL) AF226 2020-09-24 19:01:00
Abidjan Felix Houphouet Boigny Intl (ABJ) - Senou (BKO) - Charles De Gaulle (CDG) AF521 2020-09-24 08:37:00
Charles De Gaulle (CDG) - Senou (BKO) - Abidjan Felix Houphouet Boigny Intl (ABJ) AF520 2020-09-23 17:24:00
Indira Gandhi Intl (DEL) - Charles De Gaulle (CDG) AF225 2020-09-23 03:34:00
Charles De Gaulle (CDG) - Indira Gandhi Intl (DEL) AF226 2020-09-22 18:54:00
Indira Gandhi Intl (DEL) - Charles De Gaulle (CDG) AF225 2020-09-22 08:38:00
Charles De Gaulle (CDG) - Indira Gandhi Intl (DEL) AF226 2020-09-21 19:25:00
Chhatrapati Shivaji Intl (BOM) - Charles De Gaulle (CDG) AF217 2020-09-20 06:18:00
Charles De Gaulle (CDG) - Chhatrapati Shivaji Intl (BOM) AF218 2020-09-19 21:15:00
Toronto Pearson International (YYZ) - Charles De Gaulle (CDG) AF351 2020-09-19 05:26:00
Charles De Gaulle (CDG) - Toronto Pearson International (YYZ) AF356 2020-09-18 20:14:00
Hartsfield Jackson Atlanta Intl (ATL) - Charles De Gaulle (CDG) AF689 2020-09-17 08:10:00
Charles De Gaulle (CDG) - Hartsfield Jackson Atlanta Intl (ATL) AF688 2020-09-16 21:08:00
Toronto Pearson International (YYZ) - Charles De Gaulle (CDG) AF351 2020-09-16 11:56:00
Time Lat Lon Altitude Heading Speed Vertical Rate
2020-08-03 05:40:31 GMT 48.999859 2.578055 0 84 15 0
2020-08-03 05:40:17 GMT 48.999779 2.576710 0 84 17 0
2020-08-03 05:40:11 GMT 48.999744 2.576012 0 84 19 0
2020-08-03 05:40:04 GMT 48.999687 2.575156 0 84 17 0
2020-08-03 05:39:52 GMT 48.999630 2.573952 0 84 13 0
2020-08-03 05:39:43 GMT 48.999596 2.573204 0 84 12 0
2020-08-03 05:39:31 GMT 48.999512 2.571903 0 87 19 0
2020-08-03 05:39:24 GMT 48.999477 2.570981 0 84 17 0
2020-08-03 05:39:16 GMT 48.999424 2.570132 0 84 16 0
2020-08-03 05:39:13 GMT 48.999409 2.569807 0 84 15 0
2020-08-03 05:39:03 GMT 48.999348 2.568795 0 84 13 0
2020-08-03 05:38:53 GMT 48.999310 2.568001 0 84 12 0
2020-08-03 05:38:49 GMT 48.999290 2.567657 0 84 11 0
2020-08-03 05:38:44 GMT 48.999279 2.567205 0 78 11 0
2020-08-03 05:38:37 GMT 48.999252 2.566804 0 64 10 0
2020-08-03 05:38:32 GMT 48.999207 2.566470 0 45 10 0
2020-08-03 05:38:23 GMT 48.998943 2.565994 0 5 10 0
2020-08-03 05:38:19 GMT 48.998795 2.565924 0 357 10 0
2020-08-03 05:38:12 GMT 48.998508 2.565959 0 354 10 0
2020-08-03 05:38:03 GMT 48.998138 2.565994 0 354 8 0
2020-08-03 05:37:59 GMT 48.998039 2.566012 0 354 7 0
2020-08-03 05:37:52 GMT 48.997791 2.566030 0 354 8 0
2020-08-03 05:37:49 GMT 48.997684 2.566048 0 354 9 0
2020-08-03 05:37:42 GMT 48.997364 2.566082 0 354 11 0
2020-08-03 05:37:39 GMT 48.997196 2.566121 0 357 12 0
2020-08-03 05:37:31 GMT 48.996780 2.566153 0 354 12 0
2020-08-03 05:37:18 GMT 48.996071 2.566258 0 315 10 0
2020-08-03 05:36:56 GMT 48.995064 2.566382 0 315 10 0
2020-08-03 05:36:52 GMT 48.994904 2.566518 0 295 10 0
2020-08-03 05:36:39 GMT 48.994732 2.567156 0 270 8 0
2020-08-03 05:36:30 GMT 48.994766 2.567614 0 278 7 0
2020-08-03 05:36:21 GMT 48.994728 2.568072 0 286 8 0
2020-08-03 05:36:12 GMT 48.994640 2.568565 0 286 11 0
2020-08-03 05:36:01 GMT 48.994473 2.569446 0 284 15 0
2020-08-03 05:35:51 GMT 48.994286 2.570530 0 284 17 0
2020-08-03 05:35:40 GMT 48.994045 2.571875 0 284 19 0
2020-08-03 05:35:29 GMT 48.993774 2.573331 0 284 20 0
2020-08-03 05:35:21 GMT 48.993587 2.574397 0 281 18 0
2020-08-03 05:35:11 GMT 48.993484 2.575801 0 267 23 0
2020-08-03 05:34:58 GMT 48.993610 2.578636 0 264 46 0
2020-08-03 05:34:51 GMT 48.993793 2.581805 0 264 58 0
2020-08-03 05:34:39 GMT 48.994064 2.587100 0 264 98 0
2020-08-03 05:34:30 GMT 48.994507 2.594942 225 266 130 -256
2020-08-03 05:34:20 GMT 48.994972 2.604266 325 266 134 -640
2020-08-03 05:34:10 GMT 48.995499 2.613901 450 266 132 -640
2020-08-03 05:34:00 GMT 48.995956 2.623197 575 266 132 -704
2020-08-03 05:33:57 GMT 48.996140 2.625803 600 266 132 -704
2020-08-03 05:33:53 GMT 48.996323 2.629419 650 266 132 -704
2020-08-03 05:33:48 GMT 48.996555 2.633972 700 266 132 -704
2020-08-03 05:33:43 GMT 48.996780 2.638127 800 266 131 -704
2020-08-03 05:33:38 GMT 48.997055 2.643127 800 266 131 -768
2020-08-03 05:33:32 GMT 48.997349 2.648717 1,275 266 131 -704
2020-08-03 05:33:29 GMT 48.997536 2.652475 950 266 132 -704
2020-08-03 05:33:22 GMT 48.997860 2.658185 1,025 266 132 -704
2020-08-03 05:33:18 GMT 48.997997 2.661510 1,050 266 132 -768
2020-08-03 05:33:12 GMT 48.998325 2.667365 1,150 266 133 -704
2020-08-03 05:33:08 GMT 48.998566 2.671368 1,175 266 132 -640
2020-08-03 05:33:04 GMT 48.998703 2.674748 1,225 266 131 -704
2020-08-03 05:33:01 GMT 48.998886 2.677917 1,275 266 131 -704
2020-08-03 05:32:58 GMT 48.998978 2.680158 1,300 266 131 -704
2020-08-03 05:32:52 GMT 48.999302 2.686230 1,375 266 132 -704
2020-08-03 05:32:48 GMT 48.999802 2.696298 1,450 266 132 -704
2020-08-03 05:32:41 GMT 49.000000 2.699384 1,525 266 132 -640
2020-08-03 05:32:37 GMT 49.000000 2.699384 1,525 266 132 -576
2020-08-03 05:32:32 GMT 49.000259 2.704749 1,600 266 130 -576
2020-08-03 05:32:28 GMT 49.000465 2.708274 1,625 266 130 -576
2020-08-03 05:32:24 GMT 49.000626 2.711862 1,675 266 129 -576
2020-08-03 05:32:20 GMT 49.000793 2.714924 1,675 266 129 -576
2020-08-03 05:32:17 GMT 49.000946 2.717778 1,725 266 129 -640
2020-08-03 05:32:14 GMT 49.001118 2.721068 1,775 266 130 -704
2020-08-03 05:32:11 GMT 49.001221 2.723271 1,825 266 133 -704
2020-08-03 05:32:08 GMT 49.001450 2.726793 1,850 266 134 -768
2020-08-03 05:32:04 GMT 49.001678 2.731331 1,900 266 138 -704
2020-08-03 05:31:58 GMT 49.001907 2.735807 1,975 266 142 -704
2020-08-03 05:31:55 GMT 49.002048 2.738704 2,000 266 145 -832
2020-08-03 05:31:51 GMT 49.002281 2.743329 2,075 266 149 -896
2020-08-03 05:31:48 GMT 49.002422 2.746221 2,075 266 149 -896
2020-08-03 05:31:45 GMT 49.002594 2.749540 2,150 266 153 -896
2020-08-03 05:31:38 GMT 49.003166 2.760243 2,300 266 164 -896
2020-08-03 05:31:31 GMT 49.003464 2.765386 2,350 266 166 -896
2020-08-03 05:31:28 GMT 49.003647 2.768907 2,400 265 168 -896
2020-08-03 05:31:25 GMT 49.003819 2.771879 2,425 266 170 -896
2020-08-03 05:31:22 GMT 49.004051 2.775855 2,475 266 172 -896
2020-08-03 05:31:18 GMT 49.004284 2.780697 2,550 266 175 -960
2020-08-03 05:31:15 GMT 49.004471 2.783950 2,575 266 177 -960
2020-08-03 05:31:11 GMT 49.004795 2.790672 2,675 266 178 -960
2020-08-03 05:31:08 GMT 49.004974 2.793767 2,725 266 178 -960
2020-08-03 05:31:05 GMT 49.005074 2.796310 2,725 266 178 -960
2020-08-03 05:31:00 GMT 49.005432 2.802781 2,825 266 178 -960
2020-08-03 05:30:56 GMT 49.005634 2.807513 3,125 266 179 -1024
2020-08-03 05:30:50 GMT 49.006054 2.815391 3,550 266 178 -896
2020-08-03 05:30:47 GMT 49.006302 2.820599 3,050 266 179 -1024
2020-08-03 05:30:39 GMT 49.006706 2.829269 3,175 266 179 -1024
2020-08-03 05:30:36 GMT 49.006844 2.832810 3,225 266 179 -960
2020-08-03 05:30:32 GMT 49.007309 2.841484 3,300 266 177 -960
2020-08-03 05:30:29 GMT 49.007309 2.841484 3,325 266 177 -960
2020-08-03 05:30:26 GMT 49.007492 2.845741 3,475 266 177 -960
2020-08-03 05:30:19 GMT 49.007915 2.854277 3,925 266 178 -448
2020-08-03 05:30:16 GMT 49.008102 2.858397 3,550 266 178 -896
2020-08-03 05:30:10 GMT 49.008545 2.867361 3,650 266 177 -896
2020-08-03 05:30:05 GMT 49.008846 2.872708 3,725 266 177 -1024
2020-08-03 05:30:02 GMT 49.009003 2.876024 3,800 266 177 -960
2020-08-03 05:29:59 GMT 49.009186 2.879615 3,825 266 177 -960
2020-08-03 05:29:56 GMT 49.009590 2.886369 3,900 266 178 -768
2020-08-03 05:29:49 GMT 49.009918 2.892433 3,925 265 180 0
2020-08-03 05:29:46 GMT 49.010147 2.896054 3,925 265 181 0
2020-08-03 05:29:37 GMT 49.010895 2.908197 3,925 265 181 0
2020-08-03 05:29:31 GMT 49.011314 2.915063 3,925 266 181 -64
2020-08-03 05:29:28 GMT 49.011475 2.917997 3,925 265 180 0
2020-08-03 05:29:24 GMT 49.011780 2.923520 3,925 267 184 -64
2020-08-03 05:29:21 GMT 49.011967 2.927061 3,925 267 184 -64
2020-08-03 05:29:18 GMT 49.012199 2.931398 3,925 266 183 -64
2020-08-03 05:29:14 GMT 49.012390 2.937012 3,925 282 212 0
2020-08-03 05:29:09 GMT 49.012569 2.944047 3,925 270 194 192
2020-08-03 05:29:06 GMT 49.012569 2.947588 3,900 271 197 256
2020-08-03 05:28:58 GMT 49.012390 2.959196 3,900 274 204 -64
2020-08-03 05:28:54 GMT 49.012058 2.964718 3,900 277 207 0
2020-08-03 05:28:51 GMT 49.011593 2.969272 3,900 280 209 0
2020-08-03 05:28:47 GMT 49.011017 2.973703 3,900 284 213 0
2020-08-03 05:28:44 GMT 49.010193 2.978703 3,900 302 222 0
2020-08-03 05:28:41 GMT 49.009125 2.983511 3,900 290 218 -64
2020-08-03 05:28:37 GMT 49.006519 2.992546 3,900 297 221 0
2020-08-03 05:28:34 GMT 49.006519 2.992546 3,900 301 221 128
2020-08-03 05:28:31 GMT 49.005020 2.996451 3,900 302 222 64
2020-08-03 05:28:25 GMT 49.001266 3.005676 3,900 302 221 -64
2020-08-03 05:28:22 GMT 48.997375 3.015325 3,925 21 230 -64
2020-08-03 05:28:17 GMT 48.997375 3.015325 3,900 303 221 64
2020-08-03 05:28:13 GMT 48.995113 3.020662 3,900 304 221 0
2020-08-03 05:28:08 GMT 48.991760 3.028034 3,900 307 221 -64
2020-08-03 05:28:04 GMT 48.989731 3.032086 3,900 312 220 -64
2020-08-03 05:28:01 GMT 48.987350 3.036030 3,900 316 221 -64
2020-08-03 05:27:58 GMT 48.984100 3.040255 3,925 324 221 0
2020-08-03 05:27:54 GMT 48.981949 3.042438 3,925 329 221 0
2020-08-03 05:27:51 GMT 48.979156 3.044621 3,925 336 222 -64
2020-08-03 05:27:47 GMT 48.974899 3.046875 3,925 347 223 0
2020-08-03 05:27:43 GMT 48.971375 3.047861 3,925 355 225 0
2020-08-03 05:27:40 GMT 48.968533 3.048128 3,925 358 225 0
2020-08-03 05:27:37 GMT 48.964966 3.048072 3,925 2 226 0
2020-08-03 05:27:33 GMT 48.960617 3.047650 3,900 5 226 0
2020-08-03 05:27:30 GMT 48.957081 3.047188 3,900 5 226 0
2020-08-03 05:27:27 GMT 48.950748 3.046104 3,925 7 228 -64
2020-08-03 05:27:23 GMT 48.950748 3.046104 3,925 9 227 -64
2020-08-03 05:27:20 GMT 48.947491 3.045237 3,925 14 229 -64
2020-08-03 05:27:16 GMT 48.943394 3.043647 3,925 17 230 -64
2020-08-03 05:27:12 GMT 48.939285 3.041311 3,925 22 231 0
2020-08-03 05:27:07 GMT 48.933975 3.036522 3,925 38 233 0
2020-08-03 05:27:04 GMT 48.931870 3.033846 3,925 43 234 0
2020-08-03 05:27:01 GMT 48.929855 3.030748 3,925 46 235 0
2020-08-03 05:26:57 GMT 48.926468 3.023846 3,925 59 237 0
2020-08-03 05:26:54 GMT 48.925144 3.020084 3,925 65 238 0
2020-08-03 05:26:50 GMT 48.923538 3.013986 3,925 72 239 64
2020-08-03 05:26:44 GMT 48.922165 3.004472 3,925 85 245 0
2020-08-03 05:26:41 GMT 48.921841 2.998111 3,925 87 247 0
2020-08-03 05:26:33 GMT 48.921661 2.986028 3,925 89 258 0
2020-08-03 05:26:30 GMT 48.921616 2.980464 3,925 89 257 0
2020-08-03 05:26:26 GMT 48.921524 2.972788 3,975 89 263 0
2020-08-03 05:26:23 GMT 48.921524 2.967999 3,925 89 263 0
2020-08-03 05:26:20 GMT 48.921432 2.961308 3,950 89 269 -64
2020-08-03 05:26:13 GMT 48.921341 2.949266 3,925 89 272 -128
2020-08-03 05:26:10 GMT 48.921280 2.942529 3,950 89 274 -256
2020-08-03 05:26:06 GMT 48.921234 2.935952 3,950 89 276 -512
2020-08-03 05:26:03 GMT 48.921204 2.928490 4,025 89 278 -640
2020-08-03 05:26:00 GMT 48.921143 2.922725 4,025 89 278 -640
2020-08-03 05:25:57 GMT 48.921112 2.918631 4,050 89 279 -640
2020-08-03 05:25:53 GMT 48.921021 2.909264 4,100 89 281 -704
2020-08-03 05:25:49 GMT 48.920883 2.895320 4,150 89 283 -704
2020-08-03 05:25:46 GMT 48.920910 2.894536 4,175 89 283 -832
2020-08-03 05:25:42 GMT 48.920815 2.888465 4,225 88 283 -1024
2020-08-03 05:25:39 GMT 48.920769 2.881454 4,300 88 284 -1216
2020-08-03 05:25:33 GMT 48.920609 2.869051 4,425 88 284 -1344
2020-08-03 05:25:29 GMT 48.920536 2.861722 4,500 89 284 -1344
2020-08-03 05:25:25 GMT 48.920444 2.853554 4,600 89 284 -1408
2020-08-03 05:25:21 GMT 48.920334 2.842431 4,675 89 284 -1408
2020-08-03 05:25:17 GMT 48.920288 2.839262 4,850 88 283 -1472
2020-08-03 05:25:14 GMT 48.920212 2.832232 4,875 88 283 -1472
2020-08-03 05:25:11 GMT 48.920197 2.827148 4,925 88 283 -1408
2020-08-03 05:25:08 GMT 48.920116 2.821246 5,000 88 283 -1408
2020-08-03 05:25:03 GMT 48.920013 2.809965 5,125 89 283 -1344
2020-08-03 05:25:00 GMT 48.919930 2.802526 5,225 89 283 -1280
2020-08-03 05:24:57 GMT 48.919830 2.791725 5,325 89 283 -1216
2020-08-03 05:24:52 GMT 48.919792 2.788359 5,350 89 283 -1216
2020-08-03 05:24:49 GMT 48.919693 2.780879 5,425 89 284 -1216
2020-08-03 05:24:43 GMT 48.919605 2.770362 5,550 88 284 -1088
2020-08-03 05:24:40 GMT 48.919559 2.765302 5,575 88 284 -1088
2020-08-03 05:24:37 GMT 48.919464 2.758436 5,650 88 284 -1024
2020-08-03 05:24:34 GMT 48.919418 2.753272 5,725 88 286 -960
2020-08-03 05:24:31 GMT 48.919327 2.745244 5,750 88 286 -1024
2020-08-03 05:24:28 GMT 48.919277 2.740944 5,800 88 286 -1024
2020-08-03 05:24:21 GMT 48.919140 2.726778 5,925 89 287 -1280
2020-08-03 05:24:18 GMT 48.919048 2.720995 6,025 88 286 -1408
2020-08-03 05:24:15 GMT 48.918953 2.711527 6,100 88 286 -1408
2020-08-03 05:24:12 GMT 48.918915 2.707355 6,150 88 286 -1408
2020-08-03 05:24:06 GMT 48.918766 2.695481 6,275 89 286 -1152
2020-08-03 05:24:01 GMT 48.918686 2.686650 6,350 89 286 -1088
2020-08-03 05:23:57 GMT 48.918629 2.679435 6,425 89 286 -1024
2020-08-03 05:23:54 GMT 48.918533 2.671557 6,500 89 287 -960
2020-08-03 05:23:51 GMT 48.918488 2.666714 6,525 89 288 -896
2020-08-03 05:23:47 GMT 48.918411 2.659114 6,575 89 289 -832
2020-08-03 05:23:44 GMT 48.918365 2.650945 6,650 89 290 -896
2020-08-03 05:23:40 GMT 48.918255 2.643802 6,700 89 292 -896
2020-08-03 05:23:37 GMT 48.918209 2.637731 6,750 89 292 -896
2020-08-03 05:23:33 GMT 48.918091 2.630169 6,825 88 293 -1088
2020-08-03 05:23:30 GMT 48.917999 2.622775 6,825 88 293 -1088
2020-08-03 05:23:26 GMT 48.917908 2.613690 6,925 89 294 -1216
2020-08-03 05:23:23 GMT 48.917862 2.609253 7,050 89 294 -1344
2020-08-03 05:23:20 GMT 48.917744 2.601953 7,075 89 294 -1280
2020-08-03 05:23:16 GMT 48.917679 2.594886 7,150 89 294 -1280
2020-08-03 05:23:13 GMT 48.917603 2.588148 7,250 89 294 -1024
2020-08-03 05:23:10 GMT 48.917542 2.581858 7,275 89 294 -1024
2020-08-03 05:23:06 GMT 48.917450 2.574745 7,300 89 295 -896
2020-08-03 05:23:03 GMT 48.917358 2.567491 7,375 89 296 -768
2020-08-03 05:23:00 GMT 48.917267 2.561153 7,400 88 297 -640
2020-08-03 05:22:56 GMT 48.917187 2.552948 7,550 88 299 -1728
2020-08-03 05:22:53 GMT 48.917084 2.546575 7,525 88 299 -1536
2020-08-03 05:22:50 GMT 48.917038 2.540025 7,575 89 300 -1856
2020-08-03 05:22:45 GMT 48.916859 2.524037 7,850 89 304 -2240
2020-08-03 05:22:39 GMT 48.916767 2.518110 8,000 89 305 -2560
2020-08-03 05:22:36 GMT 48.916718 2.510231 8,100 89 305 -2880
2020-08-03 05:22:33 GMT 48.916626 2.502488 8,350 89 304 -3328
2020-08-03 05:22:30 GMT 48.916580 2.496502 8,725 89 301 -3776
2020-08-03 05:22:27 GMT 48.916534 2.491784 8,675 89 302 -3776
2020-08-03 05:22:23 GMT 48.916485 2.483199 8,925 89 300 -3776
2020-08-03 05:22:20 GMT 48.916393 2.475971 9,125 88 298 -3584
2020-08-03 05:22:16 GMT 48.916302 2.469611 9,300 88 297 -3328
2020-08-03 05:22:13 GMT 48.916115 2.462311 9,500 87 296 -2944
2020-08-03 05:22:10 GMT 48.915882 2.455806 9,600 85 296 -2624
2020-08-03 05:22:07 GMT 48.915527 2.449176 9,775 85 298 -2560
2020-08-03 05:22:04 GMT 48.915253 2.443613 9,950 85 299 -2752
2020-08-03 05:22:01 GMT 48.914841 2.436641 10,025 85 298 -2816
2020-08-03 05:21:58 GMT 48.914429 2.428401 10,250 85 299 -2880
2020-08-03 05:21:55 GMT 48.914204 2.424365 10,325 85 299 -2816
2020-08-03 05:21:52 GMT 48.913879 2.418004 10,525 85 301 -2624
2020-08-03 05:21:49 GMT 48.913559 2.411922 10,525 85 301 -2624
2020-08-03 05:21:46 GMT 48.913227 2.406223 10,675 85 302 -2496
2020-08-03 05:21:43 GMT 48.912827 2.399104 10,825 85 303 -2432
2020-08-03 05:21:40 GMT 48.912460 2.392625 10,925 84 304 -2368
2020-08-03 05:21:37 GMT 48.911972 2.384105 11,200 84 307 -2368
2020-08-03 05:21:34 GMT 48.911320 2.373770 11,200 84 307 -2368
2020-08-03 05:21:31 GMT 48.911320 2.373770 11,275 84 309 -2112
2020-08-03 05:21:28 GMT 48.910858 2.365300 11,350 84 309 -2112
2020-08-03 05:21:25 GMT 48.910110 2.352086 11,575 85 310 -2432
2020-08-03 05:21:22 GMT 48.910110 2.352086 11,675 85 311 -2368
2020-08-03 05:21:19 GMT 48.909828 2.346738 11,775 85 311 -2304
2020-08-03 05:21:16 GMT 48.909458 2.340594 11,850 85 312 -2176
2020-08-03 05:21:13 GMT 48.909130 2.333800 11,975 85 313 -1920
2020-08-03 05:21:09 GMT 48.908665 2.325560 12,100 85 315 -1728
2020-08-03 05:21:06 GMT 48.908249 2.318679 12,175 85 318 -1408
2020-08-03 05:21:02 GMT 48.907837 2.310650 12,275 85 319 -1152
2020-08-03 05:20:59 GMT 48.906803 2.292673 12,475 84 340 -512
2020-08-03 05:20:55 GMT 48.906803 2.292673 12,350 85 325 -512
2020-08-03 05:20:51 GMT 48.906372 2.285156 12,375 85 327 -512
2020-08-03 05:20:48 GMT 48.906059 2.279085 12,400 85 329 -512
2020-08-03 05:20:44 GMT 48.905502 2.269663 12,425 84 331 -448
2020-08-03 05:20:41 GMT 48.905045 2.262057 12,475 85 335 -512
2020-08-03 05:20:37 GMT 48.904522 2.252703 12,475 84 340 -512
2020-08-03 05:20:34 GMT 48.903671 2.237901 12,550 84 339 -576
2020-08-03 05:20:31 GMT 48.903671 2.237901 12,550 84 342 -512
2020-08-03 05:20:28 GMT 48.903217 2.230803 12,550 84 342 -512
2020-08-03 05:20:24 GMT 48.902618 2.220576 12,600 84 346 -512
2020-08-03 05:20:21 GMT 48.901730 2.206011 12,650 84 349 -512
2020-08-03 05:20:15 GMT 48.901382 2.199731 12,700 84 353 -576
2020-08-03 05:20:12 GMT 48.901031 2.193941 12,750 84 355 -576
2020-08-03 05:20:09 GMT 48.900375 2.183814 12,750 84 357 -704
2020-08-03 05:20:05 GMT 48.899780 2.174025 12,800 84 360 -768
2020-08-03 05:20:02 GMT 48.899357 2.166981 12,825 84 361 -832
2020-08-03 05:19:58 GMT 48.898750 2.157440 12,900 84 364 -1024
2020-08-03 05:19:55 GMT 48.897724 2.141105 12,975 84 366 -448
2020-08-03 05:19:52 GMT 48.897259 2.134094 13,000 84 367 -256
2020-08-03 05:19:49 GMT 48.897259 2.134094 13,000 85 369 0
2020-08-03 05:19:46 GMT 48.896748 2.126288 13,000 84 367 -64
2020-08-03 05:19:43 GMT 48.896328 2.119133 13,000 84 368 0
2020-08-03 05:19:40 GMT 48.895798 2.110924 13,000 84 368 0
2020-08-03 05:19:37 GMT 48.895306 2.102219 13,000 85 369 64
2020-08-03 05:19:34 GMT 48.894882 2.095008 13,000 85 369 0
2020-08-03 05:19:31 GMT 48.894516 2.087825 13,000 85 370 -64
2020-08-03 05:19:28 GMT 48.894104 2.079937 13,000 85 370 -64
2020-08-03 05:19:25 GMT 48.893646 2.070359 13,000 86 370 0
2020-08-03 05:19:22 GMT 48.893394 2.064346 13,000 86 370 64
2020-08-03 05:19:18 GMT 48.893070 2.054805 13,000 87 370 0
2020-08-03 05:19:15 GMT 48.892731 2.044373 13,000 87 371 64
2020-08-03 05:19:12 GMT 48.892593 2.039020 13,000 87 371 64
2020-08-03 05:19:08 GMT 48.892048 2.020328 13,000 86 370 -64
2020-08-03 05:19:05 GMT 48.891861 2.015558 13,000 85 369 -64
2020-08-03 05:19:02 GMT 48.891632 2.011202 13,000 84 369 0
2020-08-03 05:18:58 GMT 48.890991 2.002963 13,000 81 369 0
2020-08-03 05:18:55 GMT 48.890137 1.995826 13,000 78 369 64
2020-08-03 05:18:52 GMT 48.888657 1.986765 13,000 73 368 0
2020-08-03 05:18:49 GMT 48.887157 1.979707 13,000 68 368 0
2020-08-03 05:18:46 GMT 48.885178 1.972257 13,000 66 367 0
2020-08-03 05:18:43 GMT 48.882549 1.964095 13,000 61 367 0
2020-08-03 05:18:40 GMT 48.880596 1.958963 13,000 58 366 0
2020-08-03 05:18:37 GMT 48.878265 1.953615 13,000 54 365 -64
2020-08-03 05:18:34 GMT 48.874374 1.945777 13,000 49 363 -64
2020-08-03 05:18:31 GMT 48.871490 1.940707 13,000 47 363 -64
2020-08-03 05:18:28 GMT 48.867828 1.934721 13,025 44 362 -192
2020-08-03 05:18:25 GMT 48.864212 1.929298 13,025 44 362 -192
2020-08-03 05:18:22 GMT 48.860641 1.924086 13,025 44 362 -256
2020-08-03 05:18:19 GMT 48.856899 1.918560 13,075 44 360 -640
2020-08-03 05:18:16 GMT 48.852200 1.911693 13,075 44 360 -640
2020-08-03 05:18:12 GMT 48.849125 1.907140 13,100 44 360 -896
2020-08-03 05:18:09 GMT 48.844620 1.900564 13,175 44 361 -1344
2020-08-03 05:18:06 GMT 48.842140 1.896876 13,350 44 362 -1664
2020-08-03 05:18:03 GMT 48.838184 1.891094 13,325 44 362 -1664
2020-08-03 05:17:59 GMT 48.833267 1.883874 13,450 44 362 -1600
2020-08-03 05:17:56 GMT 48.825848 1.872952 13,550 44 363 -1600
2020-08-03 05:17:50 GMT 48.822403 1.867893 13,725 44 364 -1792
2020-08-03 05:17:47 GMT 48.818401 1.862038 13,775 44 365 -1856
2020-08-03 05:17:43 GMT 48.814178 1.855774 13,850 44 365 -1920
2020-08-03 05:17:40 GMT 48.810394 1.850184 13,975 44 365 -1792
2020-08-03 05:17:37 GMT 48.806297 1.844185 14,075 44 366 -1600
2020-08-03 05:17:33 GMT 48.801315 1.836830 14,175 44 368 -1280
2020-08-03 05:17:30 GMT 48.797791 1.831689 14,250 44 369 -1216
2020-08-03 05:17:27 GMT 48.792984 1.824598 14,325 44 371 -1280
2020-08-03 05:17:23 GMT 48.789631 1.819683 14,450 44 372 -1408
2020-08-03 05:17:20 GMT 48.785767 1.814045 14,475 43 373 -1536
2020-08-03 05:17:17 GMT 48.781082 1.807181 14,550 44 374 -1664
2020-08-03 05:17:14 GMT 48.778473 1.803448 14,625 43 374 -1920
2020-08-03 05:17:11 GMT 48.774593 1.797782 14,700 43 374 -1920
2020-08-03 05:17:08 GMT 48.765099 1.783905 14,925 44 375 -1664
2020-08-03 05:17:05 GMT 48.765099 1.783905 14,875 44 375 -1344
2020-08-03 05:17:02 GMT 48.763329 1.781231 14,950 43 376 -832
2020-08-03 05:16:58 GMT 48.757511 1.772774 15,000 43 377 -320
2020-08-03 05:16:55 GMT 48.754997 1.769088 15,000 43 377 -192
2020-08-03 05:16:52 GMT 48.749863 1.761615 15,000 44 378 0
2020-08-03 05:16:48 GMT 48.744102 1.753259 15,000 44 378 64
2020-08-03 05:16:45 GMT 48.737259 1.743212 15,000 44 378 0
2020-08-03 05:16:41 GMT 48.737259 1.743212 15,000 44 378 0
2020-08-03 05:16:38 GMT 48.732834 1.736755 15,000 44 378 0
2020-08-03 05:16:35 GMT 48.729126 1.731333 15,000 45 377 0
2020-08-03 05:16:31 GMT 48.724091 1.724008 15,000 43 377 0
2020-08-03 05:16:27 GMT 48.719101 1.716684 15,000 44 376 0
2020-08-03 05:16:24 GMT 48.715759 1.711825 15,000 44 376 0
2020-08-03 05:16:21 GMT 48.711777 1.705980 15,000 44 376 -64
2020-08-03 05:16:17 GMT 48.705696 1.697026 15,000 44 375 0
2020-08-03 05:16:14 GMT 48.703182 1.693340 15,000 44 376 -64
2020-08-03 05:16:11 GMT 48.699085 1.687341 15,000 44 376 64
2020-08-03 05:16:07 GMT 48.694107 1.680041 15,000 44 376 64
2020-08-03 05:16:04 GMT 48.690857 1.675204 15,000 44 376 0
2020-08-03 05:16:00 GMT 48.684906 1.666330 15,000 44 376 -64
2020-08-03 05:15:57 GMT 48.680511 1.659803 15,000 44 376 0
2020-08-03 05:15:54 GMT 48.678268 1.656471 15,000 44 376 64
2020-08-03 05:15:50 GMT 48.672321 1.647588 15,000 44 376 64
2020-08-03 05:15:47 GMT 48.665989 1.638047 15,000 44 376 0
2020-08-03 05:15:44 GMT 48.665989 1.638047 15,000 41 374 -64
2020-08-03 05:15:40 GMT 48.661472 1.631181 15,000 45 377 0
2020-08-03 05:15:37 GMT 48.657715 1.625554 15,000 45 377 0
2020-08-03 05:15:34 GMT 48.654072 1.619977 15,000 45 377 64
2020-08-03 05:15:30 GMT 48.647739 1.610437 15,000 44 376 -64
2020-08-03 05:15:24 GMT 48.640915 1.600201 15,000 44 376 0
2020-08-03 05:15:19 GMT 48.634781 1.591046 15,000 44 376 64
2020-08-03 05:15:16 GMT 48.631393 1.586045 15,000 44 375 0
2020-08-03 05:15:13 GMT 48.627640 1.580482 15,000 43 374 0
2020-08-03 05:15:10 GMT 48.624527 1.576045 15,000 43 374 0
2020-08-03 05:15:07 GMT 48.620182 1.569816 15,000 42 374 0
2020-08-03 05:15:04 GMT 48.616039 1.564034 15,000 42 374 0
2020-08-03 05:15:00 GMT 48.608826 1.554284 15,000 41 374 -64
2020-08-03 05:14:56 GMT 48.605713 1.550129 15,000 41 374 0
2020-08-03 05:14:53 GMT 48.602772 1.546253 15,000 41 374 0
2020-08-03 05:14:50 GMT 48.598297 1.540410 15,000 41 374 -128
2020-08-03 05:14:46 GMT 48.592342 1.532231 15,000 43 375 -64
2020-08-03 05:14:43 GMT 48.589966 1.528719 15,000 45 376 -64
2020-08-03 05:14:40 GMT 48.586105 1.522402 15,025 50 377 -192
2020-08-03 05:14:37 GMT 48.582687 1.515972 15,025 54 379 -384
2020-08-03 05:14:34 GMT 48.579029 1.507946 15,050 58 381 -640
2020-08-03 05:14:30 GMT 48.576141 1.500338 15,125 64 383 -896
2020-08-03 05:14:27 GMT 48.573769 1.492840 15,150 67 385 -1152
2020-08-03 05:14:24 GMT 48.571381 1.483577 15,200 69 386 -1408
2020-08-03 05:14:21 GMT 48.569439 1.473830 15,325 74 388 -1792
2020-08-03 05:14:17 GMT 48.568230 1.466747 15,400 76 389 -1792
2020-08-03 05:14:13 GMT 48.566620 1.456111 15,525 77 390 -1728
2020-08-03 05:14:10 GMT 48.565296 1.447376 15,700 77 392 -1728
2020-08-03 05:14:06 GMT 48.562828 1.430752 15,775 77 392 -1664
2020-08-03 05:14:03 GMT 48.562828 1.430752 15,925 77 393 -1792
2020-08-03 05:14:00 GMT 48.560760 1.417095 15,950 77 394 -1792
2020-08-03 05:13:55 GMT 48.559113 1.406109 16,075 77 395 -1792
2020-08-03 05:13:49 GMT 48.555038 1.379418 16,300 77 397 -1728
2020-08-03 05:13:45 GMT 48.555038 1.379418 16,375 77 397 -1728
2020-08-03 05:13:42 GMT 48.553844 1.371701 16,450 77 398 -1792
2020-08-03 05:13:36 GMT 48.551651 1.357164 16,600 77 399 -1792
2020-08-03 05:13:32 GMT 48.550232 1.347656 16,675 77 399 -1856
2020-08-03 05:13:28 GMT 48.548164 1.334188 16,900 77 400 -1792
2020-08-03 05:13:24 GMT 48.546631 1.324214 16,950 77 401 -1792
2020-08-03 05:13:21 GMT 48.545605 1.317203 17,025 77 401 -1792
2020-08-03 05:13:17 GMT 48.543556 1.303687 17,200 77 402 -1792
2020-08-03 05:13:13 GMT 48.541649 1.291255 17,325 77 402 -1792
2020-08-03 05:13:09 GMT 48.540665 1.284696 17,400 77 403 -1856
2020-08-03 05:13:06 GMT 48.538879 1.273076 17,525 77 404 -1856
2020-08-03 05:13:03 GMT 48.537926 1.266753 17,625 77 404 -1856
2020-08-03 05:13:00 GMT 48.536636 1.258146 17,625 77 404 -1792
2020-08-03 05:12:56 GMT 48.534988 1.247371 17,850 77 406 -1856
2020-08-03 05:12:53 GMT 48.532288 1.229342 18,000 77 407 -1792
2020-08-03 05:12:49 GMT 48.532288 1.229342 18,000 77 407 -1792
2020-08-03 05:12:46 GMT 48.529171 1.208713 18,200 77 409 -1792
2020-08-03 05:12:42 GMT 48.529171 1.208713 18,200 77 409 -1792
2020-08-03 05:12:39 GMT 48.528149 1.202063 18,275 77 410 -1920
2020-08-03 05:12:36 GMT 48.526703 1.192721 18,425 77 410 -1920
2020-08-03 05:12:33 GMT 48.525307 1.183415 18,500 76 410 -1920
2020-08-03 05:12:29 GMT 48.521942 1.161452 18,700 77 412 -1792
2020-08-03 05:12:25 GMT 48.521942 1.161452 18,750 77 412 -1792
2020-08-03 05:12:21 GMT 48.520187 1.150023 19,025 77 414 -1856
2020-08-03 05:12:15 GMT 48.514801 1.115183 19,125 76 414 -1856
2020-08-03 05:12:11 GMT 48.514801 1.115183 19,275 76 415 -1856
2020-08-03 05:12:05 GMT 48.513344 1.105716 19,375 76 415 -1856
2020-08-03 05:12:02 GMT 48.511826 1.096027 19,475 76 416 -1792
2020-08-03 05:11:57 GMT 48.509949 1.083844 19,600 76 417 -1856
2020-08-03 05:11:54 GMT 48.508667 1.075674 19,675 76 417 -1856
2020-08-03 05:11:51 GMT 48.504959 1.051800 19,900 76 418 -1920
2020-08-03 05:11:47 GMT 48.504959 1.051800 19,975 76 419 -1920
2020-08-03 05:11:44 GMT 48.504128 1.046375 19,975 76 419 -1920
2020-08-03 05:11:41 GMT 48.502899 1.038349 20,200 76 420 -1920
2020-08-03 05:11:38 GMT 48.501381 1.028595 20,375 76 420 -1920
2020-08-03 05:11:35 GMT 48.498505 1.009897 20,425 76 420 -1920
2020-08-03 05:11:31 GMT 48.498505 1.009897 20,425 76 421 -1920
2020-08-03 05:11:28 GMT 48.497051 1.000551 20,550 76 422 -1984
2020-08-03 05:11:24 GMT 48.495117 0.988206 20,625 76 422 -1984
2020-08-03 05:11:21 GMT 48.493885 0.979952 20,775 77 422 -1856
2020-08-03 05:11:17 GMT 48.492443 0.970772 20,925 77 422 -1856
2020-08-03 05:11:14 GMT 48.490952 0.960952 20,975 77 422 -1856
2020-08-03 05:11:10 GMT 48.487289 0.937289 21,175 76 424 -1792
2020-08-03 05:11:07 GMT 48.487289 0.937289 21,200 76 424 -1792
2020-08-03 05:11:04 GMT 48.485458 0.925316 21,275 76 424 -1792
2020-08-03 05:11:01 GMT 48.485046 0.922781 21,375 76 426 -1792
2020-08-03 05:10:57 GMT 48.483505 0.912877 21,600 76 427 -1792
2020-08-03 05:10:54 GMT 48.482162 0.904048 21,575 76 427 -1856
2020-08-03 05:10:51 GMT 48.480515 0.893625 21,675 76 428 -1856
2020-08-03 05:10:48 GMT 48.479141 0.884611 21,750 76 428 -1856
2020-08-03 05:10:45 GMT 48.477539 0.874610 21,875 76 429 -1792
2020-08-03 05:10:41 GMT 48.475777 0.863150 22,000 76 430 -1856
2020-08-03 05:10:37 GMT 48.473820 0.850790 22,175 76 431 -1856
2020-08-03 05:10:33 GMT 48.472687 0.843553 22,200 76 431 -1856
2020-08-03 05:10:30 GMT 48.470581 0.830242 22,350 76 433 -1856
2020-08-03 05:10:27 GMT 48.469910 0.825782 22,450 76 433 -1856
2020-08-03 05:10:24 GMT 48.466507 0.804115 22,600 76 434 -1856
2020-08-03 05:10:20 GMT 48.466507 0.804115 23,025 76 438 -1856
2020-08-03 05:10:17 GMT 48.465271 0.796157 22,700 76 435 -1856
2020-08-03 05:10:13 GMT 48.463303 0.783621 23,400 76 439 -1856
2020-08-03 05:10:10 GMT 48.461857 0.774392 22,925 76 437 -1856
2020-08-03 05:10:06 GMT 48.460052 0.762775 23,175 76 437 -1920
2020-08-03 05:10:03 GMT 48.458878 0.755455 23,150 76 438 -1856
2020-08-03 05:10:00 GMT 48.457077 0.744042 23,250 76 438 -1856
2020-08-03 05:09:54 GMT 48.454422 0.727140 23,500 76 440 -1920
2020-08-03 05:09:51 GMT 48.452454 0.714534 23,500 76 440 -1920
2020-08-03 05:09:48 GMT 48.449661 0.697054 23,700 76 441 -1856
2020-08-03 05:09:45 GMT 48.449661 0.697054 23,850 76 443 -1920
2020-08-03 05:09:42 GMT 48.448730 0.691127 24,000 76 443 -1920
2020-08-03 05:09:38 GMT 48.446777 0.678617 23,975 76 444 -1920
2020-08-03 05:09:32 GMT 48.444031 0.661363 24,300 76 445 -1856
2020-08-03 05:09:29 GMT 48.442795 0.653616 24,225 76 445 -1792
2020-08-03 05:09:26 GMT 48.441055 0.642559 24,325 76 446 -1856
2020-08-03 05:09:23 GMT 48.439373 0.631931 24,425 76 447 -1920
2020-08-03 05:09:20 GMT 48.435562 0.607981 24,775 76 448 -1984
2020-08-03 05:09:15 GMT 48.435562 0.607981 24,700 76 448 -1920
2020-08-03 05:09:12 GMT 48.434391 0.600490 24,825 76 452 -1920
2020-08-03 05:09:09 GMT 48.433090 0.592205 24,850 76 450 -1920
2020-08-03 05:09:05 GMT 48.431133 0.579818 24,950 76 450 -1984
2020-08-03 05:09:02 GMT 48.429749 0.571007 25,125 76 451 -1920
2020-08-03 05:08:59 GMT 48.428329 0.561993 25,150 76 451 -1920
2020-08-03 05:08:55 GMT 48.426224 0.548823 25,375 76 453 -1920
2020-08-03 05:08:52 GMT 48.424622 0.538823 25,425 76 452 -1920
2020-08-03 05:08:49 GMT 48.422104 0.522907 26,450 76 459 -1920
2020-08-03 05:08:46 GMT 48.422104 0.522907 25,600 76 454 -1984
2020-08-03 05:08:43 GMT 48.420227 0.511076 25,675 76 454 -1984
2020-08-03 05:08:40 GMT 48.419029 0.503709 25,800 76 455 -1856
2020-08-03 05:08:37 GMT 48.417389 0.493117 26,150 76 460 -1984
2020-08-03 05:08:34 GMT 48.415878 0.483751 26,050 76 456 -1920
2020-08-03 05:08:31 GMT 48.414368 0.474384 26,050 76 457 -1856
2020-08-03 05:08:27 GMT 48.412514 0.462799 26,325 76 458 -1920
2020-08-03 05:08:21 GMT 48.409439 0.443428 26,450 76 460 -1920
2020-08-03 05:08:17 GMT 48.407436 0.430997 26,525 76 460 -1920
2020-08-03 05:08:14 GMT 48.405949 0.421817 26,675 76 461 -1984
2020-08-03 05:08:10 GMT 48.404251 0.411072 26,725 76 461 -1920
2020-08-03 05:08:07 GMT 48.402504 0.400350 26,875 76 463 -1856
2020-08-03 05:08:04 GMT 48.400688 0.388858 27,050 76 467 -1920
2020-08-03 05:08:00 GMT 48.399197 0.379896 27,050 76 467 -1920
2020-08-03 05:07:57 GMT 48.397202 0.367338 27,200 76 465 -1920
2020-08-03 05:07:53 GMT 48.395737 0.358323 27,275 76 466 -1984
2020-08-03 05:07:50 GMT 48.393845 0.346720 27,400 76 467 -1920
2020-08-03 05:07:47 GMT 48.392303 0.337125 27,450 76 467 -1920
2020-08-03 05:07:44 GMT 48.391052 0.329590 27,575 76 468 -1856
2020-08-03 05:07:41 GMT 48.389236 0.318242 27,700 76 469 -1984
2020-08-03 05:07:38 GMT 48.387932 0.310147 27,850 76 470 -1856
2020-08-03 05:07:34 GMT 48.385345 0.294166 27,975 76 471 -1792
2020-08-03 05:07:31 GMT 48.384018 0.285997 28,000 76 471 -1792
2020-08-03 05:07:28 GMT 48.382553 0.276841 28,050 76 472 -1728
2020-08-03 05:07:25 GMT 48.380947 0.267141 28,175 76 473 -1152
2020-08-03 05:07:21 GMT 48.377319 0.244663 28,275 76 474 -640
2020-08-03 05:07:18 GMT 48.377319 0.244663 28,275 76 475 -768
2020-08-03 05:07:15 GMT 48.375687 0.234657 28,325 76 476 -1088
2020-08-03 05:07:11 GMT 48.373352 0.220572 28,425 76 477 -1856
2020-08-03 05:07:08 GMT 48.372059 0.212571 28,550 76 478 -2368
2020-08-03 05:07:05 GMT 48.370239 0.201205 28,650 76 478 -2496
2020-08-03 05:07:02 GMT 48.369404 0.196308 28,700 76 478 -2560
2020-08-03 05:06:59 GMT 48.367035 0.181627 28,925 76 478 -2752
2020-08-03 05:06:55 GMT 48.365524 0.172330 29,200 76 477 -3008
2020-08-03 05:06:52 GMT 48.363491 0.159735 29,300 76 477 -2688
2020-08-03 05:06:49 GMT 48.362503 0.153527 29,325 76 477 -2688
2020-08-03 05:06:46 GMT 48.360672 0.142259 29,450 76 477 -2432
2020-08-03 05:06:43 GMT 48.359070 0.132486 29,650 76 477 -2176
2020-08-03 05:06:40 GMT 48.357193 0.120850 29,825 76 478 -2112
2020-08-03 05:06:36 GMT 48.352341 0.090919 30,650 76 485 -1984
2020-08-03 05:06:30 GMT 48.352341 0.090919 30,050 76 479 -2048
2020-08-03 05:06:27 GMT 48.350830 0.081602 30,150 76 480 -1984
2020-08-03 05:06:24 GMT 48.349293 0.072062 30,200 76 480 -1856
2020-08-03 05:06:21 GMT 48.347340 0.060353 30,350 76 483 -1920
2020-08-03 05:06:18 GMT 48.345757 0.050739 30,400 76 483 -1984
2020-08-03 05:06:15 GMT 48.344513 0.043171 30,475 76 484 -2048
2020-08-03 05:06:11 GMT 48.342312 0.029562 30,700 76 486 -1984
2020-08-03 05:06:08 GMT 48.339146 0.010480 30,825 76 487 -1984
2020-08-03 05:06:02 GMT 48.337326 -0.000775 30,950 76 488 -2048
2020-08-03 05:05:59 GMT 48.335541 -0.011550 31,100 76 489 -2048
2020-08-03 05:05:55 GMT 48.333618 -0.023170 31,200 76 490 -1984
2020-08-03 05:05:52 GMT 48.331928 -0.033465 31,325 76 491 -1984
2020-08-03 05:05:49 GMT 48.330299 -0.043512 31,375 76 491 -1984
2020-08-03 05:05:46 GMT 48.328629 -0.053594 31,650 76 493 -2112
2020-08-03 05:05:43 GMT 48.327026 -0.063383 31,600 76 493 -2112
2020-08-03 05:05:39 GMT 48.323597 -0.084421 31,775 76 494 -2048
2020-08-03 05:05:36 GMT 48.323597 -0.084421 31,900 76 495 -1984
2020-08-03 05:05:33 GMT 48.322014 -0.093962 31,925 76 495 -1984
2020-08-03 05:05:30 GMT 48.319920 -0.106538 32,100 75 496 -2048
2020-08-03 05:05:27 GMT 48.317917 -0.118609 32,200 75 498 -2048
2020-08-03 05:05:24 GMT 48.314846 -0.136823 32,325 75 499 -2048
2020-08-03 05:05:21 GMT 48.314846 -0.136823 32,350 75 500 -2048
2020-08-03 05:05:18 GMT 48.313339 -0.145710 32,475 75 504 -2048
2020-08-03 05:05:15 GMT 48.311600 -0.156203 32,600 75 502 -2048
2020-08-03 05:05:12 GMT 48.309952 -0.166133 32,725 75 503 -2048
2020-08-03 05:05:09 GMT 48.308144 -0.176938 32,725 75 507 -2048
2020-08-03 05:05:05 GMT 48.306141 -0.188864 32,900 75 503 -2048
2020-08-03 05:05:02 GMT 48.304604 -0.198115 32,975 75 505 -2048
2020-08-03 05:04:59 GMT 48.302464 -0.210836 33,175 75 506 -2048
2020-08-03 05:04:56 GMT 48.300552 -0.222256 33,275 75 507 -2048
2020-08-03 05:04:53 GMT 48.299240 -0.230220 33,300 75 508 -2112
2020-08-03 05:04:50 GMT 48.297134 -0.242756 33,400 75 508 -2112
2020-08-03 05:04:47 GMT 48.295303 -0.253671 33,550 76 509 -2112
2020-08-03 05:04:41 GMT 48.292419 -0.271278 33,725 76 511 -2048
2020-08-03 05:04:38 GMT 48.290359 -0.283621 33,850 75 512 -2048
2020-08-03 05:04:34 GMT 48.288731 -0.293523 33,950 75 512 -2112
2020-08-03 05:04:31 GMT 48.286469 -0.307054 34,100 75 513 -2112
2020-08-03 05:04:27 GMT 48.284351 -0.319760 34,225 75 514 -2176
2020-08-03 05:04:24 GMT 48.282623 -0.330224 34,325 75 515 -2176
2020-08-03 05:04:21 GMT 48.280792 -0.341069 34,450 75 515 -2368
2020-08-03 05:04:17 GMT 48.278870 -0.352689 34,650 75 516 -2176
2020-08-03 05:04:14 GMT 48.277084 -0.363183 34,675 76 517 -1920
2020-08-03 05:04:11 GMT 48.274979 -0.376000 34,775 75 518 -1472
2020-08-03 05:04:07 GMT 48.272717 -0.389436 34,850 75 519 -1600
2020-08-03 05:04:04 GMT 48.271133 -0.398607 35,050 75 521 -2624
2020-08-03 05:04:01 GMT 48.269073 -0.410931 35,125 75 521 -2880
2020-08-03 05:03:58 GMT 48.267361 -0.421022 35,225 75 521 -3072
2020-08-03 05:03:55 GMT 48.265366 -0.432763 35,550 75 520 -3072
2020-08-03 05:03:52 GMT 48.263580 -0.443397 35,625 75 520 -2048
2020-08-03 05:03:49 GMT 48.261913 -0.453186 35,700 75 520 -1728
2020-08-03 05:03:46 GMT 48.260056 -0.464102 35,775 75 521 -1792
2020-08-03 05:03:43 GMT 48.258591 -0.473046 35,850 75 521 -2048
2020-08-03 05:03:40 GMT 48.256889 -0.483109 36,100 75 523 -2368
2020-08-03 05:03:37 GMT 48.255398 -0.491783 36,075 75 523 -2368
2020-08-03 05:03:34 GMT 48.253189 -0.504737 36,200 75 523 -2304
2020-08-03 05:03:31 GMT 48.251450 -0.515090 36,375 75 525 -2240
2020-08-03 05:03:28 GMT 48.249161 -0.528330 36,475 75 525 -2240
2020-08-03 05:03:25 GMT 48.247467 -0.538471 36,700 75 525 -2304
2020-08-03 05:03:22 GMT 48.246185 -0.545795 36,625 75 526 -2304
2020-08-03 05:03:19 GMT 48.244308 -0.556781 36,750 75 526 -2304
2020-08-03 05:03:16 GMT 48.242340 -0.568402 36,950 75 527 -2368
2020-08-03 05:03:13 GMT 48.240509 -0.579106 37,050 75 526 -2368
2020-08-03 05:03:10 GMT 48.236847 -0.600234 37,200 75 526 -2048
2020-08-03 05:03:07 GMT 48.236847 -0.600234 38,725 75 527 0
2020-08-03 05:03:04 GMT 48.235107 -0.610375 37,325 75 526 -1920
2020-08-03 05:03:01 GMT 48.231354 -0.632418 37,550 75 526 -1472
2020-08-03 05:02:58 GMT 48.231354 -0.632418 37,575 75 526 -1408
2020-08-03 05:02:55 GMT 48.229469 -0.643423 37,625 75 526 -1216
2020-08-03 05:02:52 GMT 48.227692 -0.653827 37,675 75 527 -1024
2020-08-03 05:02:49 GMT 48.225883 -0.664311 37,725 75 527 -960
2020-08-03 05:02:46 GMT 48.224121 -0.674744 37,750 75 527 -960
2020-08-03 05:02:43 GMT 48.222107 -0.686575 37,800 75 526 -1024
2020-08-03 05:02:39 GMT 48.220001 -0.698970 37,975 75 526 -960
2020-08-03 05:02:36 GMT 48.218491 -0.707703 37,925 75 525 -960
2020-08-03 05:02:33 GMT 48.214012 -0.734205 38,000 75 525 -960
2020-08-03 05:02:30 GMT 48.214012 -0.734205 38,050 75 525 -960
2020-08-03 05:02:27 GMT 48.212383 -0.743746 38,050 75 524 -960
2020-08-03 05:02:24 GMT 48.210846 -0.752708 38,125 75 524 -960
2020-08-03 05:02:21 GMT 48.208473 -0.766802 38,225 75 524 -960
2020-08-03 05:02:17 GMT 48.206985 -0.775476 38,225 75 524 -960
2020-08-03 05:02:14 GMT 48.204472 -0.790076 38,300 75 525 -1024
2020-08-03 05:02:10 GMT 48.202560 -0.801016 38,325 75 525 -960
2020-08-03 05:02:07 GMT 48.200775 -0.811439 38,375 75 525 -960
2020-08-03 05:02:04 GMT 48.198978 -0.821879 38,450 75 525 -960
2020-08-03 05:02:01 GMT 48.197433 -0.830876 38,500 75 525 -960
2020-08-03 05:01:58 GMT 48.193771 -0.852004 38,725 75 527 0
2020-08-03 05:01:52 GMT 48.191620 -0.864378 38,775 75 526 -1024
2020-08-03 05:01:49 GMT 48.189789 -0.875033 38,700 75 526 -960
2020-08-03 05:01:46 GMT 48.187912 -0.886019 38,725 75 526 -1024
2020-08-03 05:01:43 GMT 48.184406 -0.906300 38,825 75 525 -1024
2020-08-03 05:01:40 GMT 48.184406 -0.906300 38,900 75 525 -1024
2020-08-03 05:01:37 GMT 48.182602 -0.916725 38,925 75 525 -1024
2020-08-03 05:01:34 GMT 48.180771 -0.927147 38,950 75 525 -960
2020-08-03 05:01:31 GMT 48.178757 -0.938627 39,000 75 526 -256
2020-08-03 05:01:28 GMT 48.177238 -0.947354 39,000 75 526 -256
2020-08-03 05:01:25 GMT 48.175095 -0.959754 39,000 75 526 0
2020-08-03 05:01:22 GMT 48.173767 -0.967290 39,000 75 526 0
2020-08-03 05:01:19 GMT 48.171928 -0.977711 39,000 75 526 -64
2020-08-03 05:01:15 GMT 48.168594 -0.996868 39,000 75 526 0
2020-08-03 05:01:12 GMT 48.167404 -1.003841 39,000 75 526 64
2020-08-03 05:01:09 GMT 48.165436 -1.015109 39,000 75 527 64
2020-08-03 05:01:05 GMT 48.163223 -1.027800 39,000 75 527 0
2020-08-03 05:01:02 GMT 48.161270 -1.039075 39,000 75 527 0
2020-08-03 05:00:59 GMT 48.159546 -1.048913 39,000 75 527 0
2020-08-03 05:00:56 GMT 48.154129 -1.079819 39,000 75 527 0
2020-08-03 05:00:52 GMT 48.154129 -1.079819 39,000 75 526 0
2020-08-03 05:00:49 GMT 48.152985 -1.086308 39,000 75 526 0
2020-08-03 05:00:46 GMT 48.151215 -1.096450 39,000 75 526 0
2020-08-03 05:00:43 GMT 48.149258 -1.107366 39,000 75 526 0
2020-08-03 05:00:39 GMT 48.146839 -1.121169 39,000 75 526 0
2020-08-03 05:00:35 GMT 48.144604 -1.134057 39,000 75 526 0
2020-08-03 05:00:32 GMT 48.140762 -1.155968 39,000 75 525 0
2020-08-03 05:00:29 GMT 48.140762 -1.155968 39,000 75 525 0
2020-08-03 05:00:26 GMT 48.139069 -1.165512 39,000 75 525 -64
2020-08-03 05:00:23 GMT 48.137203 -1.176171 39,000 75 525 0
2020-08-03 05:00:20 GMT 48.135155 -1.187932 39,000 75 525 0
2020-08-03 05:00:17 GMT 48.132614 -1.202248 39,000 75 525 0
2020-08-03 05:00:14 GMT 48.130051 -1.216805 39,000 75 524 0
2020-08-03 05:00:08 GMT 48.127983 -1.228567 39,000 75 524 0
2020-08-03 05:00:05 GMT 48.124168 -1.250117 39,000 75 524 0
2020-08-03 04:59:59 GMT 48.122211 -1.260963 39,000 75 524 64
2020-08-03 04:59:56 GMT 48.120392 -1.271324 39,000 75 524 64
2020-08-03 04:59:53 GMT 48.116673 -1.292302 39,000 75 523 0
2020-08-03 04:59:47 GMT 48.114807 -1.302910 39,000 75 523 0
2020-08-03 04:59:44 GMT 48.112854 -1.313782 39,000 75 523 0
2020-08-03 04:59:41 GMT 48.110962 -1.324402 39,000 75 523 0
2020-08-03 04:59:38 GMT 48.107574 -1.343628 39,000 75 523 0
2020-08-03 04:59:35 GMT 48.107574 -1.343628 39,000 75 523 0
2020-08-03 04:59:31 GMT 48.104370 -1.361481 39,000 75 523 64
2020-08-03 04:59:28 GMT 48.103081 -1.368784 39,000 75 523 0
2020-08-03 04:59:25 GMT 48.101166 -1.379608 39,000 75 523 64
2020-08-03 04:59:21 GMT 48.096748 -1.404489 39,000 75 523 0
2020-08-03 04:59:18 GMT 48.096748 -1.404489 39,000 75 523 0
2020-08-03 04:59:15 GMT 48.095078 -1.413666 39,000 75 523 0
2020-08-03 04:59:12 GMT 48.093155 -1.424515 39,000 75 523 0
2020-08-03 04:59:09 GMT 48.091255 -1.435124 39,000 75 523 0
2020-08-03 04:59:06 GMT 48.089252 -1.446322 39,000 75 523 0
2020-08-03 04:59:02 GMT 48.086975 -1.459122 39,000 75 523 -64
2020-08-03 04:58:59 GMT 48.084869 -1.470863 39,000 75 523 0
2020-08-03 04:58:55 GMT 48.082687 -1.483154 39,000 75 524 0
2020-08-03 04:58:52 GMT 48.080643 -1.494634 39,000 75 524 0
2020-08-03 04:58:49 GMT 48.079060 -1.503296 39,000 74 524 0
2020-08-03 04:58:46 GMT 48.077133 -1.514191 39,000 74 524 0
2020-08-03 04:58:43 GMT 48.075211 -1.524834 39,000 75 525 0
2020-08-03 04:58:40 GMT 48.069794 -1.555058 39,000 75 525 0
2020-08-03 04:58:36 GMT 48.069794 -1.555058 39,000 75 525 0
2020-08-03 04:58:33 GMT 48.068710 -1.560951 39,000 75 525 0
2020-08-03 04:58:30 GMT 48.066814 -1.571538 39,000 75 525 0
2020-08-03 04:58:27 GMT 48.064911 -1.582237 39,000 75 525 0
2020-08-03 04:58:24 GMT 48.063171 -1.591713 39,000 74 527 0
2020-08-03 04:58:21 GMT 48.060997 -1.603793 39,000 74 527 0
2020-08-03 04:58:18 GMT 48.059414 -1.612737 39,000 74 527 0
2020-08-03 04:58:14 GMT 48.054756 -1.638301 39,000 74 527 0
2020-08-03 04:58:11 GMT 48.054756 -1.638301 39,000 74 527 0
2020-08-03 04:58:08 GMT 48.052895 -1.648653 39,000 74 527 0
2020-08-03 04:58:05 GMT 48.051220 -1.657950 39,000 74 527 0
2020-08-03 04:58:02 GMT 48.049393 -1.667999 39,000 74 528 -64
2020-08-03 04:57:59 GMT 48.047264 -1.679781 39,000 74 528 0
2020-08-03 04:57:56 GMT 48.045776 -1.687981 39,000 74 528 0
2020-08-03 04:57:53 GMT 48.042892 -1.703979 39,000 74 528 0
2020-08-03 04:57:50 GMT 48.041538 -1.711543 39,000 74 528 0
2020-08-03 04:57:47 GMT 48.039440 -1.723093 39,000 74 528 0
2020-08-03 04:57:44 GMT 48.037582 -1.733231 39,000 74 529 0
2020-08-03 04:57:41 GMT 48.035751 -1.743324 39,000 74 529 -64
2020-08-03 04:57:38 GMT 48.033901 -1.753728 39,000 74 529 0
2020-08-03 04:57:35 GMT 48.031952 -1.764473 39,000 74 529 0
2020-08-03 04:57:32 GMT 48.030087 -1.774855 39,000 74 529 0
2020-08-03 04:57:29 GMT 48.028221 -1.784997 39,000 74 529 0
2020-08-03 04:57:26 GMT 48.026321 -1.795372 39,000 74 529 0
2020-08-03 04:57:23 GMT 48.024498 -1.805490 39,000 74 529 0
2020-08-03 04:57:20 GMT 48.021706 -1.820702 39,000 74 528 0
2020-08-03 04:57:17 GMT 48.020775 -1.825773 39,000 74 528 0
2020-08-03 04:57:14 GMT 48.018353 -1.838942 39,000 74 528 0
2020-08-03 04:57:11 GMT 48.016678 -1.848238 39,000 74 528 0
2020-08-03 04:57:08 GMT 48.014282 -1.861427 39,000 74 528 0
2020-08-03 04:57:04 GMT 48.011719 -1.875435 39,000 74 527 0
2020-08-03 04:57:01 GMT 48.010117 -1.884155 39,000 74 527 0
2020-08-03 04:56:58 GMT 48.008625 -1.892254 39,000 74 527 0
2020-08-03 04:56:55 GMT 48.004166 -1.916634 39,000 74 527 0
2020-08-03 04:56:52 GMT 48.004166 -1.916634 39,000 74 526 0
2020-08-03 04:56:49 GMT 48.002014 -1.928375 39,000 74 526 0
2020-08-03 04:56:46 GMT 48.000477 -1.936763 39,000 74 526 0
2020-08-03 04:56:43 GMT 47.998581 -1.947121 39,000 74 526 0
2020-08-03 04:56:40 GMT 47.996567 -1.958038 39,000 74 525 0
2020-08-03 04:56:36 GMT 47.994461 -1.969437 39,000 74 525 0
2020-08-03 04:56:33 GMT 47.991959 -1.983173 39,000 74 525 0
2020-08-03 04:56:29 GMT 47.989353 -1.997117 39,000 74 525 0
2020-08-03 04:56:26 GMT 47.985767 -2.016625 39,000 74 525 0
2020-08-03 04:56:23 GMT 47.985767 -2.016625 39,000 74 525 0
2020-08-03 04:56:20 GMT 47.983887 -2.026978 39,000 74 525 0
2020-08-03 04:56:17 GMT 47.979946 -2.048176 39,000 74 525 0
2020-08-03 04:56:14 GMT 47.979946 -2.048176 39,000 74 525 0
2020-08-03 04:56:11 GMT 47.977901 -2.059303 39,000 74 526 0
2020-08-03 04:56:08 GMT 47.976242 -2.068245 39,000 74 526 0
2020-08-03 04:56:05 GMT 47.974174 -2.079444 39,000 74 526 0
2020-08-03 04:56:02 GMT 47.971802 -2.092262 39,000 74 526 0
2020-08-03 04:55:59 GMT 47.970520 -2.099281 39,000 74 526 0
2020-08-03 04:55:56 GMT 47.968498 -2.110150 39,000 74 527 0
2020-08-03 04:55:53 GMT 47.965897 -2.124138 39,000 74 526 0
2020-08-03 04:55:50 GMT 47.964432 -2.131966 39,000 74 526 0
2020-08-03 04:55:47 GMT 47.961887 -2.145644 39,000 74 526 0
2020-08-03 04:55:42 GMT 47.959511 -2.158461 39,000 74 526 0
2020-08-03 04:55:39 GMT 47.955555 -2.179659 39,000 74 525 0
2020-08-03 04:55:36 GMT 47.955555 -2.179659 39,000 74 525 0
2020-08-03 04:55:33 GMT 47.953693 -2.189660 39,000 74 526 0
2020-08-03 04:55:30 GMT 47.951504 -2.201421 39,000 74 526 0
2020-08-03 04:55:27 GMT 47.949318 -2.213111 39,000 74 526 0
2020-08-03 04:55:24 GMT 47.947220 -2.224251 39,000 74 526 0
2020-08-03 04:55:21 GMT 47.945984 -2.230911 39,000 74 526 0
2020-08-03 04:55:18 GMT 47.943741 -2.242928 39,000 74 526 0
2020-08-03 04:55:15 GMT 47.941822 -2.253254 39,000 74 526 0
2020-08-03 04:55:11 GMT 47.939262 -2.267127 39,000 74 525 0
2020-08-03 04:55:06 GMT 47.934189 -2.294171 39,000 74 525 0
2020-08-03 04:55:02 GMT 47.933029 -2.300537 39,000 74 525 0
2020-08-03 04:54:58 GMT 47.930649 -2.313034 39,000 74 525 0
2020-08-03 04:54:55 GMT 47.929092 -2.321342 39,000 74 524 0
2020-08-03 04:54:52 GMT 47.926025 -2.337753 39,000 74 524 0
2020-08-03 04:54:49 GMT 47.924744 -2.344688 39,000 74 524 0
2020-08-03 04:54:46 GMT 47.923107 -2.353328 39,000 74 524 0
2020-08-03 04:54:43 GMT 47.920761 -2.365837 39,000 74 524 0
2020-08-03 04:54:39 GMT 47.918243 -2.379158 39,000 74 524 0
2020-08-03 04:54:36 GMT 47.916733 -2.387192 39,000 74 524 -64
2020-08-03 04:54:33 GMT 47.912704 -2.408821 39,000 74 524 0
2020-08-03 04:54:30 GMT 47.909958 -2.423241 39,000 74 523 0
2020-08-03 04:54:27 GMT 47.909958 -2.423241 39,000 74 523 0
2020-08-03 04:54:23 GMT 47.907841 -2.434598 39,000 74 523 0
2020-08-03 04:54:20 GMT 47.905418 -2.447345 39,000 74 523 0
2020-08-03 04:54:16 GMT 47.903458 -2.457848 39,000 74 523 0
2020-08-03 04:54:13 GMT 47.901600 -2.467557 39,000 74 523 0
2020-08-03 04:54:10 GMT 47.899181 -2.480516 39,000 74 523 0
2020-08-03 04:54:07 GMT 47.897278 -2.490532 39,000 74 523 0
2020-08-03 04:54:04 GMT 47.895874 -2.497981 39,000 74 523 0
2020-08-03 04:54:01 GMT 47.893826 -2.508756 39,000 74 523 0
2020-08-03 04:53:58 GMT 47.891556 -2.520676 39,000 74 522 0
2020-08-03 04:53:55 GMT 47.889404 -2.531997 39,000 74 522 0
2020-08-03 04:53:52 GMT 47.886887 -2.545258 39,000 74 522 -64
2020-08-03 04:53:49 GMT 47.885651 -2.551918 39,000 74 522 0
2020-08-03 04:53:46 GMT 47.881256 -2.575097 39,000 74 522 0
2020-08-03 04:53:43 GMT 47.881256 -2.575097 39,000 74 521 0
2020-08-03 04:53:39 GMT 47.879070 -2.586365 39,000 74 521 0
2020-08-03 04:53:36 GMT 47.876881 -2.597985 39,000 74 521 0
2020-08-03 04:53:32 GMT 47.874599 -2.609816 39,000 74 520 0
2020-08-03 04:53:29 GMT 47.872513 -2.620857 39,000 74 521 0
2020-08-03 04:53:26 GMT 47.870087 -2.633550 39,000 74 521 0
2020-08-03 04:53:21 GMT 47.866547 -2.652001 39,000 74 520 0
2020-08-03 04:53:18 GMT 47.865555 -2.657181 39,000 74 520 0
2020-08-03 04:53:15 GMT 47.863220 -2.669609 39,000 74 520 0
2020-08-03 04:53:12 GMT 47.861053 -2.680875 39,000 74 520 0
2020-08-03 04:53:08 GMT 47.858734 -2.692955 39,000 74 520 0
2020-08-03 04:53:05 GMT 47.856903 -2.702568 39,000 74 520 0
2020-08-03 04:53:02 GMT 47.854797 -2.713554 39,000 74 519 0
2020-08-03 04:52:59 GMT 47.852921 -2.723442 39,000 74 519 0
2020-08-03 04:52:56 GMT 47.850765 -2.734751 39,000 74 520 0
2020-08-03 04:52:52 GMT 47.848160 -2.748131 39,000 74 520 0
2020-08-03 04:52:48 GMT 47.845551 -2.761864 39,000 74 520 0
2020-08-03 04:52:45 GMT 47.843876 -2.770386 39,000 74 520 0
2020-08-03 04:52:42 GMT 47.841476 -2.782974 39,000 74 520 0
2020-08-03 04:52:38 GMT 47.838821 -2.796707 39,000 74 520 0
2020-08-03 04:52:35 GMT 47.836670 -2.807968 39,000 74 520 0
2020-08-03 04:52:32 GMT 47.833145 -2.826370 39,000 74 520 0
2020-08-03 04:52:29 GMT 47.833145 -2.826370 39,000 73 520 0
2020-08-03 04:52:26 GMT 47.830982 -2.837360 39,000 74 521 0
2020-08-03 04:52:23 GMT 47.829399 -2.845600 39,000 74 521 -64
2020-08-03 04:52:19 GMT 47.826233 -2.862076 39,000 74 521 0
2020-08-03 04:52:16 GMT 47.823624 -2.875809 39,000 74 521 0
2020-08-03 04:52:13 GMT 47.822697 -2.880460 39,000 74 521 0
2020-08-03 04:52:10 GMT 47.820183 -2.893700 39,000 73 520 0
2020-08-03 04:52:07 GMT 47.818405 -2.902725 39,000 73 520 0
2020-08-03 04:52:04 GMT 47.816116 -2.914536 39,000 73 520 0
2020-08-03 04:52:00 GMT 47.813244 -2.929335 39,000 73 520 0
2020-08-03 04:51:57 GMT 47.811939 -2.936167 39,000 73 520 0
2020-08-03 04:51:54 GMT 47.809986 -2.946308 39,000 73 520 0
2020-08-03 04:51:50 GMT 47.807426 -2.959477 39,000 73 520 64
2020-08-03 04:51:47 GMT 47.805405 -2.969879 39,000 73 520 64
2020-08-03 04:51:44 GMT 47.803162 -2.981415 39,000 73 520 0
2020-08-03 04:51:39 GMT 47.799374 -3.000887 39,000 73 520 0
2020-08-03 04:51:36 GMT 47.798023 -3.007719 39,000 73 520 0
2020-08-03 04:51:33 GMT 47.795746 -3.019524 39,000 73 520 0
2020-08-03 04:51:30 GMT 47.793552 -3.030748 39,000 73 520 0
2020-08-03 04:51:27 GMT 47.791809 -3.039780 39,000 73 520 0
2020-08-03 04:51:24 GMT 47.789829 -3.049903 39,000 73 520 0
2020-08-03 04:51:21 GMT 47.787872 -3.059763 39,000 73 520 0
2020-08-03 04:51:18 GMT 47.785858 -3.070198 39,000 73 520 0
2020-08-03 04:51:15 GMT 47.783890 -3.080017 39,000 73 520 0
2020-08-03 04:51:12 GMT 47.781914 -3.090186 39,000 73 520 0
2020-08-03 04:51:09 GMT 47.778992 -3.105286 39,000 73 520 0
2020-08-03 04:51:06 GMT 47.777435 -3.113182 39,000 73 521 0
2020-08-03 04:51:01 GMT 47.774281 -3.129413 39,000 73 521 0
2020-08-03 04:50:58 GMT 47.772278 -3.139555 39,000 73 521 0
2020-08-03 04:50:55 GMT 47.770569 -3.148338 39,000 73 521 0
2020-08-03 04:50:52 GMT 47.768646 -3.158226 39,000 73 521 0
2020-08-03 04:50:49 GMT 47.764435 -3.179581 39,000 73 521 0
2020-08-03 04:50:46 GMT 47.764435 -3.179581 39,000 73 521 0
2020-08-03 04:50:43 GMT 47.759663 -3.204064 39,000 73 521 0
2020-08-03 04:50:39 GMT 47.757477 -3.215080 39,000 73 521 0
2020-08-03 04:50:36 GMT 47.757477 -3.215080 39,000 73 521 0
2020-08-03 04:50:32 GMT 47.755005 -3.227715 39,000 73 522 0
2020-08-03 04:50:29 GMT 47.752354 -3.241178 39,000 73 522 0
2020-08-03 04:50:26 GMT 47.748047 -3.263145 39,000 73 522 0
2020-08-03 04:50:23 GMT 47.748047 -3.263145 39,000 73 522 0
2020-08-03 04:50:20 GMT 47.746628 -3.270287 39,000 73 523 0
2020-08-03 04:50:17 GMT 47.744888 -3.279076 39,000 73 523 0
2020-08-03 04:50:14 GMT 47.742783 -3.289856 39,000 73 523 0
2020-08-03 04:50:10 GMT 47.740128 -3.303314 39,000 73 524 0
2020-08-03 04:50:07 GMT 47.738068 -3.313751 39,000 73 524 0
2020-08-03 04:50:04 GMT 47.736145 -3.323708 39,000 73 524 0
2020-08-03 04:50:01 GMT 47.734245 -3.333365 39,000 73 524 0
2020-08-03 04:49:58 GMT 47.731476 -3.347397 39,000 73 524 0
2020-08-03 04:49:55 GMT 47.730057 -3.354538 39,000 73 524 0
2020-08-03 04:49:49 GMT 47.726147 -3.374352 39,000 73 524 0
2020-08-03 04:49:46 GMT 47.723679 -3.386817 39,000 73 524 0
2020-08-03 04:49:43 GMT 47.721313 -3.398621 39,000 73 524 -64
2020-08-03 04:49:39 GMT 47.718838 -3.411325 39,000 73 524 0
2020-08-03 04:49:36 GMT 47.716602 -3.422593 39,000 73 524 0
2020-08-03 04:49:32 GMT 47.713623 -3.437416 39,000 73 524 64
2020-08-03 04:49:28 GMT 47.711517 -3.448196 39,000 73 523 0
2020-08-03 04:49:25 GMT 47.709621 -3.457524 39,000 73 523 0
2020-08-03 04:49:21 GMT 47.706619 -3.472641 39,000 73 522 0
2020-08-03 04:49:18 GMT 47.702728 -3.492142 39,000 73 522 64
2020-08-03 04:49:15 GMT 47.702728 -3.492142 39,000 73 522 0
2020-08-03 04:49:11 GMT 47.699844 -3.506681 39,000 73 522 0
2020-08-03 04:49:08 GMT 47.698029 -3.515695 39,000 73 522 0
2020-08-03 04:49:05 GMT 47.695679 -3.527504 39,000 73 521 0
2020-08-03 04:49:02 GMT 47.691238 -3.549614 39,000 73 521 0
2020-08-03 04:48:58 GMT 47.691238 -3.549614 39,000 73 520 0
2020-08-03 04:48:55 GMT 47.689232 -3.559711 39,000 73 520 0
2020-08-03 04:48:52 GMT 47.687088 -3.570345 39,000 73 519 0
2020-08-03 04:48:48 GMT 47.684296 -3.584290 39,000 73 519 0
2020-08-03 04:48:45 GMT 47.680389 -3.603859 39,000 73 518 0
2020-08-03 04:48:42 GMT 47.680389 -3.603859 39,000 73 518 0
2020-08-03 04:48:38 GMT 47.676819 -3.621574 39,000 73 517 0
2020-08-03 04:48:35 GMT 47.674850 -3.631325 39,000 73 517 0
2020-08-03 04:48:29 GMT 47.671028 -3.650348 39,000 73 517 0
2020-08-03 04:48:26 GMT 47.669495 -3.657898 39,000 73 517 0
2020-08-03 04:48:23 GMT 47.667480 -3.667923 39,000 73 517 0
2020-08-03 04:48:18 GMT 47.663628 -3.686969 39,000 73 517 0
2020-08-03 04:48:14 GMT 47.660751 -3.701294 39,000 73 517 0
2020-08-03 04:48:10 GMT 47.658142 -3.714340 39,000 73 517 0
2020-08-03 04:48:07 GMT 47.656128 -3.724365 39,000 73 517 0
2020-08-03 04:48:04 GMT 47.654037 -3.734647 39,000 73 517 0
2020-08-03 04:48:01 GMT 47.651917 -3.745239 39,000 73 517 0
2020-08-03 04:47:58 GMT 47.649948 -3.754990 39,000 73 517 0
2020-08-03 04:47:55 GMT 47.647293 -3.767967 39,000 73 517 0
2020-08-03 04:47:49 GMT 47.644028 -3.784227 39,000 73 517 0
2020-08-03 04:47:46 GMT 47.639885 -3.804580 39,000 73 517 0
2020-08-03 04:47:43 GMT 47.639885 -3.804580 39,000 73 517 0
2020-08-03 04:47:39 GMT 47.636395 -3.821904 39,000 73 517 0
2020-08-03 04:47:36 GMT 47.634933 -3.828941 39,000 73 517 0
2020-08-03 04:47:33 GMT 47.632919 -3.839035 39,000 73 517 0
2020-08-03 04:47:30 GMT 47.630016 -3.853384 39,000 73 517 0
2020-08-03 04:47:26 GMT 47.627838 -3.863960 39,000 73 517 0
2020-08-03 04:47:23 GMT 47.626152 -3.872399 39,000 73 518 0
2020-08-03 04:47:19 GMT 47.623173 -3.887047 39,000 73 518 0
2020-08-03 04:47:16 GMT 47.620972 -3.897881 39,000 73 519 0
2020-08-03 04:47:13 GMT 47.618843 -3.908245 39,000 73 519 0
2020-08-03 04:47:08 GMT 47.615536 -3.924514 39,000 73 520 0
2020-08-03 04:47:05 GMT 47.613419 -3.934891 39,000 73 520 0
2020-08-03 04:47:02 GMT 47.611813 -3.942754 39,000 73 520 0
2020-08-03 04:46:57 GMT 47.608063 -3.961258 39,000 73 520 0
2020-08-03 04:46:54 GMT 47.605637 -3.973000 39,000 73 520 0
2020-08-03 04:46:47 GMT 47.600922 -3.996140 39,000 73 520 0
2020-08-03 04:46:44 GMT 47.599182 -4.004585 39,000 73 520 0
2020-08-03 04:46:38 GMT 47.594402 -4.027968 39,000 73 521 0
2020-08-03 04:46:35 GMT 47.592449 -4.037476 39,000 73 520 0
2020-08-03 04:46:32 GMT 47.590725 -4.045927 39,000 73 520 0
2020-08-03 04:46:28 GMT 47.587692 -4.060890 39,000 73 520 0
2020-08-03 04:46:24 GMT 47.584991 -4.073936 39,000 73 520 0
2020-08-03 04:46:21 GMT 47.583042 -4.083463 39,000 73 520 0
2020-08-03 04:46:18 GMT 47.580597 -4.095428 39,000 73 519 0
2020-08-03 04:46:15 GMT 47.578857 -4.103806 39,000 73 519 0
2020-08-03 04:46:12 GMT 47.572128 -4.136353 39,000 73 518 0
2020-08-03 04:46:06 GMT 47.572128 -4.136353 39,000 73 518 0
2020-08-03 04:46:02 GMT 47.569656 -4.148575 39,000 73 518 0
2020-08-03 04:45:58 GMT 47.566845 -4.162058 39,000 73 518 0
2020-08-03 04:45:55 GMT 47.565121 -4.170509 39,000 73 518 0
2020-08-03 04:45:52 GMT 47.562561 -4.182904 39,000 73 518 0
2020-08-03 04:45:48 GMT 47.557346 -4.208116 39,000 73 518 0
2020-08-03 04:45:44 GMT 47.557346 -4.208116 39,000 73 518 0
2020-08-03 04:45:41 GMT 47.555344 -4.217834 39,000 73 517 0
2020-08-03 04:45:38 GMT 47.552879 -4.229736 39,000 73 517 0
2020-08-03 04:45:35 GMT 47.550797 -4.239693 39,000 73 517 0
2020-08-03 04:45:32 GMT 47.548004 -4.253220 39,000 73 517 0
2020-08-03 04:45:27 GMT 47.544388 -4.270798 39,000 72 517 0
2020-08-03 04:45:24 GMT 47.542282 -4.280823 39,000 72 517 0
2020-08-03 04:45:21 GMT 47.540955 -4.287277 39,000 72 517 0
2020-08-03 04:45:17 GMT 47.538025 -4.301285 39,000 72 517 0
2020-08-03 04:45:14 GMT 47.535980 -4.311289 39,000 72 517 0
2020-08-03 04:45:11 GMT 47.533813 -4.321541 39,000 72 517 0
2020-08-03 04:45:07 GMT 47.531021 -4.335068 39,000 72 516 0
2020-08-03 04:45:03 GMT 47.528393 -4.347699 39,000 72 516 0
2020-08-03 04:45:00 GMT 47.526203 -4.358262 39,000 72 516 0
2020-08-03 04:44:56 GMT 47.523560 -4.370911 39,000 72 516 0
2020-08-03 04:44:53 GMT 47.521271 -4.381925 39,000 72 516 0
2020-08-03 04:44:50 GMT 47.519623 -4.389725 39,000 72 516 0
2020-08-03 04:44:46 GMT 47.516327 -4.405655 39,000 72 515 0
2020-08-03 04:44:43 GMT 47.514286 -4.415588 39,000 72 515 0
2020-08-03 04:44:40 GMT 47.512424 -4.424462 39,000 72 515 0
2020-08-03 04:44:34 GMT 47.505211 -4.459111 39,000 72 515 0
2020-08-03 04:44:30 GMT 47.505211 -4.459111 39,000 72 515 0
2020-08-03 04:44:27 GMT 47.502548 -4.471779 39,000 72 514 0
2020-08-03 04:44:23 GMT 47.499756 -4.485168 39,000 72 514 0
2020-08-03 04:44:19 GMT 47.497665 -4.495380 39,000 72 514 0
2020-08-03 04:44:12 GMT 47.492798 -4.518677 39,000 72 514 0
2020-08-03 04:44:09 GMT 47.490639 -4.528902 39,000 72 514 0
2020-08-03 04:44:06 GMT 47.488449 -4.539325 39,000 72 513 0
2020-08-03 04:44:03 GMT 47.486435 -4.548958 39,000 72 513 0
2020-08-03 04:44:00 GMT 47.483505 -4.562897 39,000 72 513 0
2020-08-03 04:43:56 GMT 47.481373 -4.573059 39,000 72 513 0
2020-08-03 04:43:52 GMT 47.478626 -4.586158 39,000 72 513 0
2020-08-03 04:43:49 GMT 47.476593 -4.595787 39,000 72 513 0
2020-08-03 04:43:46 GMT 47.474159 -4.607286 39,000 72 513 0
2020-08-03 04:43:42 GMT 47.471413 -4.620385 39,000 72 514 0
2020-08-03 04:43:38 GMT 47.465378 -4.649002 39,000 72 513 0
2020-08-03 04:43:34 GMT 47.465378 -4.649002 39,000 72 513 0
2020-08-03 04:43:31 GMT 47.463959 -4.655663 39,000 72 513 0
2020-08-03 04:43:28 GMT 47.461914 -4.665316 39,000 72 513 0
2020-08-03 04:43:25 GMT 47.459244 -4.677841 39,000 72 513 0
2020-08-03 04:43:22 GMT 47.457138 -4.687729 39,000 72 513 0
2020-08-03 04:43:16 GMT 47.453018 -4.707230 39,000 72 513 -64
2020-08-03 04:43:12 GMT 47.450275 -4.720318 39,025 72 513 0
2020-08-03 04:43:09 GMT 47.447662 -4.732567 39,000 72 513 64
2020-08-03 04:43:04 GMT 47.444366 -4.748066 39,000 72 514 0
2020-08-03 04:43:01 GMT 47.442993 -4.754471 39,000 72 515 0
2020-08-03 04:42:55 GMT 47.438461 -4.775894 39,000 72 515 -64
2020-08-03 04:42:51 GMT 47.435669 -4.789009 39,000 72 516 0
2020-08-03 04:42:46 GMT 47.431377 -4.809195 39,000 72 516 0
2020-08-03 04:42:43 GMT 47.429672 -4.817230 39,000 72 516 0
2020-08-03 04:42:39 GMT 47.427048 -4.829548 39,000 72 516 64
2020-08-03 04:42:35 GMT 47.423950 -4.844078 39,000 72 517 64
2020-08-03 04:42:31 GMT 47.421089 -4.857506 39,000 72 518 64
2020-08-03 04:42:27 GMT 47.418297 -4.870676 39,000 72 518 0
2020-08-03 04:42:23 GMT 47.413406 -4.893564 39,000 72 519 0
2020-08-03 04:42:13 GMT 47.408157 -4.918098 39,000 72 519 0
2020-08-03 04:42:10 GMT 47.405914 -4.928604 39,000 72 519 0
2020-08-03 04:42:05 GMT 47.402374 -4.945115 39,000 72 519 64
2020-08-03 04:42:00 GMT 47.399071 -4.960468 39,000 72 521 0
2020-08-03 04:41:55 GMT 47.393051 -4.988548 39,000 72 521 0
2020-08-03 04:41:52 GMT 47.393051 -4.988548 39,000 72 521 0
2020-08-03 04:41:49 GMT 47.390762 -4.999397 39,000 72 521 0
2020-08-03 04:41:42 GMT 47.385818 -5.022331 39,000 72 521 0
2020-08-03 04:41:39 GMT 47.383026 -5.035309 39,000 72 520 0
2020-08-03 04:41:32 GMT 47.378819 -5.054979 39,000 72 520 0
2020-08-03 04:41:29 GMT 47.376305 -5.066599 39,000 72 519 0
2020-08-03 04:41:24 GMT 47.372955 -5.082163 39,000 72 518 0
2020-08-03 04:41:21 GMT 47.370533 -5.093501 39,000 72 518 0
2020-08-03 04:41:18 GMT 47.368393 -5.103431 39,000 72 517 0
2020-08-03 04:41:14 GMT 47.365723 -5.115715 39,000 72 516 0
2020-08-03 04:41:11 GMT 47.363571 -5.125877 39,000 72 514 0
2020-08-03 04:41:08 GMT 47.361420 -5.135765 39,000 72 514 0
2020-08-03 04:41:02 GMT 47.356522 -5.158644 39,000 72 512 0
2020-08-03 04:40:58 GMT 47.354507 -5.168243 39,000 72 511 0
2020-08-03 04:40:55 GMT 47.349380 -5.192070 39,000 72 509 0
2020-08-03 04:40:51 GMT 47.349380 -5.192070 39,000 72 509 0
2020-08-03 04:40:48 GMT 47.347301 -5.201815 39,000 72 508 0
2020-08-03 04:40:44 GMT 47.344345 -5.215553 39,000 72 508 0
2020-08-03 04:40:40 GMT 47.341507 -5.228943 39,000 72 507 0
2020-08-03 04:40:34 GMT 47.337063 -5.249775 39,000 72 506 0
2020-08-03 04:40:30 GMT 47.332592 -5.270691 39,000 72 505 0
2020-08-03 04:40:27 GMT 47.332592 -5.270691 39,000 72 504 0
2020-08-03 04:40:24 GMT 47.329941 -5.283015 39,000 72 504 0
2020-08-03 04:40:21 GMT 47.327892 -5.292382 39,000 72 503 0
2020-08-03 04:40:17 GMT 47.325668 -5.302551 39,000 72 503 0
2020-08-03 04:40:11 GMT 47.321281 -5.322313 39,000 71 502 0
2020-08-03 04:40:08 GMT 47.318535 -5.334496 39,000 71 500 0
2020-08-03 04:40:04 GMT 47.315689 -5.346840 39,000 71 500 0
2020-08-03 04:40:01 GMT 47.313721 -5.355354 39,000 71 499 0
2020-08-03 04:39:57 GMT 47.310528 -5.369004 39,000 70 499 0
2020-08-03 04:39:53 GMT 47.307449 -5.382065 39,000 70 499 64
2020-08-03 04:39:50 GMT 47.305435 -5.390785 39,000 71 499 0
2020-08-03 04:39:46 GMT 47.302277 -5.404381 39,000 72 499 0
2020-08-03 04:39:43 GMT 47.300194 -5.413936 39,000 72 500 0
2020-08-03 04:39:40 GMT 47.298561 -5.421753 39,000 73 501 0
2020-08-03 04:39:37 GMT 47.296375 -5.433373 39,000 76 506 0
2020-08-03 04:39:33 GMT 47.294266 -5.446129 39,000 77 506 0
2020-08-03 04:39:30 GMT 47.291245 -5.468376 39,000 80 510 0
2020-08-03 04:39:27 GMT 47.291245 -5.468376 39,000 80 510 0
2020-08-03 04:39:23 GMT 47.290009 -5.479568 39,000 82 513 0
2020-08-03 04:39:20 GMT 47.288879 -5.491756 39,000 82 513 0
2020-08-03 04:39:17 GMT 47.286880 -5.517249 39,000 83 513 0
2020-08-03 04:39:14 GMT 47.286880 -5.517249 39,000 83 514 -64
2020-08-03 04:39:10 GMT 47.286209 -5.525848 39,000 83 514 0
2020-08-03 04:39:06 GMT 47.285248 -5.538895 39,000 83 513 0
2020-08-03 04:39:02 GMT 47.284241 -5.552216 39,000 83 513 0
2020-08-03 04:38:59 GMT 47.283463 -5.562721 39,000 83 513 0
2020-08-03 04:38:56 GMT 47.282597 -5.574646 39,000 83 513 0
2020-08-03 04:38:50 GMT 47.281013 -5.595351 39,000 83 513 0
2020-08-03 04:38:47 GMT 47.280350 -5.604195 39,000 83 512 0
2020-08-03 04:38:43 GMT 47.279102 -5.620845 39,000 83 512 0
2020-08-03 04:38:38 GMT 47.277786 -5.637978 39,000 83 512 0
2020-08-03 04:38:35 GMT 47.277237 -5.645119 39,000 83 512 0
2020-08-03 04:38:31 GMT 47.276001 -5.661461 39,000 83 512 0
2020-08-03 04:38:28 GMT 47.275146 -5.672748 39,000 83 512 0
2020-08-03 04:38:25 GMT 47.274590 -5.680495 39,000 83 512 0
2020-08-03 04:38:21 GMT 47.273392 -5.695999 39,000 83 513 0
2020-08-03 04:38:18 GMT 47.272659 -5.705681 39,000 83 513 0
2020-08-03 04:38:12 GMT 47.271145 -5.726131 39,000 83 513 0
2020-08-03 04:38:08 GMT 47.269981 -5.741695 39,000 83 513 0
2020-08-03 04:38:02 GMT 47.268448 -5.761299 39,000 83 513 0
2020-08-03 04:37:58 GMT 47.267349 -5.775993 39,000 83 513 0
2020-08-03 04:37:54 GMT 47.266537 -5.786837 39,000 83 513 0
2020-08-03 04:37:50 GMT 47.265373 -5.801767 39,000 83 513 0
2020-08-03 04:37:47 GMT 47.264603 -5.812042 39,000 83 513 0
2020-08-03 04:37:44 GMT 47.263836 -5.821698 39,000 83 514 0
2020-08-03 04:37:40 GMT 47.262764 -5.835571 39,000 83 514 0
2020-08-03 04:37:37 GMT 47.261993 -5.845825 39,000 83 514 0
2020-08-03 04:37:34 GMT 47.259979 -5.872192 39,000 83 514 0
2020-08-03 04:37:30 GMT 47.259979 -5.872192 39,000 83 514 0
2020-08-03 04:37:27 GMT 47.259319 -5.880784 39,000 83 514 0
2020-08-03 04:37:24 GMT 47.258343 -5.893250 39,000 83 514 0
2020-08-03 04:37:20 GMT 47.257233 -5.907417 39,000 83 514 0
2020-08-03 04:37:17 GMT 47.256546 -5.916000 39,000 83 514 0
2020-08-03 04:37:10 GMT 47.254570 -5.941772 39,000 83 514 0
2020-08-03 04:37:07 GMT 47.253826 -5.950928 39,000 83 514 0
2020-08-03 04:37:00 GMT 47.251823 -5.976492 39,000 83 514 -64
2020-08-03 04:36:57 GMT 47.251099 -5.985901 39,000 83 513 0
2020-08-03 04:36:50 GMT 47.249126 -6.011071 39,000 83 513 0
2020-08-03 04:36:47 GMT 47.248287 -6.021282 39,000 83 512 0
2020-08-03 04:36:42 GMT 47.247116 -6.036507 39,000 83 513 0
2020-08-03 04:36:37 GMT 47.245605 -6.055321 39,000 83 512 0
2020-08-03 04:36:30 GMT 47.243633 -6.080158 39,000 83 512 0
2020-08-03 04:36:27 GMT 47.242813 -6.090683 39,000 83 512 0
2020-08-03 04:36:20 GMT 47.240837 -6.114948 39,000 83 512 0
2020-08-03 04:36:16 GMT 47.239861 -6.127695 39,000 83 512 0
2020-08-03 04:36:12 GMT 47.238789 -6.141217 39,000 83 512 0
2020-08-03 04:36:09 GMT 47.237961 -6.151657 39,000 83 512 0
2020-08-03 04:36:06 GMT 47.237114 -6.162133 39,000 83 512 0
2020-08-03 04:36:01 GMT 47.235626 -6.180655 39,000 83 512 0
2020-08-03 04:35:57 GMT 47.234509 -6.194458 39,000 83 512 0
2020-08-03 04:35:51 GMT 47.232925 -6.214318 39,000 83 512 0
2020-08-03 04:35:47 GMT 47.231899 -6.227347 39,000 83 512 0
2020-08-03 04:35:39 GMT 47.229572 -6.256080 39,000 83 512 0
2020-08-03 04:35:31 GMT 47.227291 -6.284532 39,000 83 512 0
2020-08-03 04:35:28 GMT 47.226425 -6.294685 39,000 83 512 0
2020-08-03 04:35:20 GMT 47.224274 -6.320915 39,000 83 512 0
2020-08-03 04:35:17 GMT 47.223476 -6.330590 39,000 83 512 0
2020-08-03 04:35:12 GMT 47.222076 -6.347763 39,000 83 512 0
2020-08-03 04:35:06 GMT 47.220261 -6.370098 39,000 83 513 0
2020-08-03 04:34:59 GMT 47.218353 -6.393620 39,000 83 513 -64
2020-08-03 04:34:56 GMT 47.217453 -6.404411 39,000 83 513 0
2020-08-03 04:34:46 GMT 47.214523 -6.440048 39,000 83 513 0
2020-08-03 04:34:35 GMT 47.208755 -6.509811 39,000 82 513 0
2020-08-03 04:34:25 GMT 47.208755 -6.509811 39,000 82 513 0
2020-08-03 04:34:15 GMT 47.205872 -6.544418 39,000 82 513 0
2020-08-03 04:34:06 GMT 47.202946 -6.579825 39,000 82 513 0
2020-08-03 04:33:57 GMT 47.200523 -6.608558 39,000 82 513 0
2020-08-03 04:33:53 GMT 47.199406 -6.621798 39,000 82 513 0
2020-08-03 04:33:44 GMT 47.196533 -6.656342 39,000 82 512 0
2020-08-03 04:33:38 GMT 47.195171 -6.672011 39,000 82 511 0
2020-08-03 04:33:34 GMT 47.193913 -6.687223 39,000 82 512 0
2020-08-03 04:33:28 GMT 47.192276 -6.706810 39,000 82 511 0
2020-08-03 04:33:23 GMT 47.190609 -6.726027 39,000 82 511 0
2020-08-03 04:33:14 GMT 47.188095 -6.755747 39,000 82 510 0
2020-08-03 04:33:03 GMT 47.184837 -6.793917 39,000 82 510 0
2020-08-03 04:32:54 GMT 47.182137 -6.825468 39,000 82 509 0
2020-08-03 04:32:43 GMT 47.179066 -6.861314 39,000 82 508 0
2020-08-03 04:32:33 GMT 47.175934 -6.897079 39,000 82 507 0
2020-08-03 04:32:28 GMT 47.174549 -6.912865 39,000 82 507 0
2020-08-03 04:32:24 GMT 47.173058 -6.929767 39,000 82 507 0
2020-08-03 04:32:18 GMT 47.171520 -6.947233 39,000 82 506 0
2020-08-03 04:32:13 GMT 47.169987 -6.964909 39,000 82 506 0
2020-08-03 04:32:03 GMT 47.167099 -6.998085 39,000 82 506 0
2020-08-03 04:31:53 GMT 47.164028 -7.033151 39,000 82 506 0
2020-08-03 04:31:43 GMT 47.160965 -7.067642 39,000 82 505 0
2020-08-03 04:31:29 GMT 47.156754 -7.115433 39,000 82 505 0
2020-08-03 04:31:22 GMT 47.154858 -7.136817 39,000 82 505 0
2020-08-03 04:31:12 GMT 47.151833 -7.170762 39,000 82 505 0
2020-08-03 04:31:02 GMT 47.148880 -7.204147 39,000 82 505 0
2020-08-03 04:30:53 GMT 47.145824 -7.238582 39,000 82 505 0
2020-08-03 04:30:42 GMT 47.142612 -7.274639 39,000 82 504 0
2020-08-03 04:30:32 GMT 47.139683 -7.306824 39,000 82 503 0
2020-08-03 04:30:22 GMT 47.136520 -7.341682 39,000 82 502 0
2020-08-03 04:30:11 GMT 47.133270 -7.377045 39,000 82 502 0
2020-08-03 04:30:02 GMT 47.130295 -7.409386 39,000 82 502 0
2020-08-03 04:29:52 GMT 47.127205 -7.443096 39,000 82 503 -64
2020-08-03 04:29:41 GMT 47.123852 -7.480140 39,000 82 503 0
2020-08-03 04:29:31 GMT 47.120918 -7.512254 39,000 82 504 0
2020-08-03 04:29:22 GMT 47.117847 -7.545565 39,000 82 504 0
2020-08-03 04:29:11 GMT 47.114681 -7.580144 39,000 82 504 0
2020-08-03 04:29:01 GMT 47.111572 -7.613731 39,000 82 504 0
2020-08-03 04:28:50 GMT 47.108047 -7.651566 39,000 82 503 0
2020-08-03 04:28:41 GMT 47.105045 -7.683669 39,000 82 502 0
2020-08-03 04:28:29 GMT 47.101460 -7.721698 39,000 82 502 0
2020-08-03 04:28:21 GMT 47.098763 -7.750221 39,000 82 501 0
2020-08-03 04:28:10 GMT 47.095322 -7.786491 39,000 82 501 0
2020-08-03 04:28:00 GMT 47.092243 -7.818463 39,000 82 500 0
2020-08-03 04:27:51 GMT 47.089077 -7.851985 39,000 82 499 0
2020-08-03 04:27:38 GMT 47.084930 -7.895050 39,000 81 498 0
2020-08-03 04:27:30 GMT 47.082375 -7.921495 39,000 81 498 64
2020-08-03 04:27:20 GMT 47.079163 -7.955088 39,000 82 497 0
2020-08-03 04:27:08 GMT 47.075577 -7.992202 39,000 81 498 0
2020-08-03 04:26:08 GMT 47.055981 -8.194251 39,000 81 500 0
2020-08-03 04:25:59 GMT 47.052933 -8.225258 39,000 81 500 0
2020-08-03 04:25:48 GMT 47.049408 -8.260551 39,000 81 499 0
2020-08-03 04:25:38 GMT 47.045792 -8.296051 39,000 81 498 0
2020-08-03 04:25:29 GMT 47.042572 -8.327778 39,000 81 498 0
2020-08-03 04:25:15 GMT 47.038239 -8.370140 39,000 81 497 0
2020-08-03 04:24:24 GMT 47.021576 -8.539617 39,025 81 498 0
2020-08-03 04:24:17 GMT 47.019016 -8.563772 39,000 80 495 0
2020-08-03 04:23:47 GMT 47.003860 -8.659424 39,000 73 481 0
We lost coverage of the aircraft here for a total of 80 minutes
2020-08-03 03:04:07 GMT 40.696060 -20.274519 39,000 39 482 0
We lost coverage of the aircraft here for a total of 9 minutes
2020-08-03 02:54:50 GMT 39.748581 -21.283920 39,000 38 472 0
2020-08-03 02:54:39 GMT 39.728577 -21.304819 39,000 38 472 -64
2020-08-03 02:53:35 GMT 39.621216 -21.416870 39,000 38 470 0
2020-08-03 02:52:58 GMT 39.557281 -21.483227 39,000 38 468 0
2020-08-03 02:52:44 GMT 39.534302 -21.507141 39,000 38 469 0
2020-08-03 02:52:34 GMT 39.516983 -21.525024 39,000 38 468 0
2020-08-03 02:52:25 GMT 39.501854 -21.540771 39,000 38 468 0
2020-08-03 02:51:59 GMT 39.457584 -21.586548 39,000 38 469 0
2020-08-03 02:51:29 GMT 39.407494 -21.638367 39,000 38 470 0
2020-08-03 02:51:24 GMT 39.399345 -21.646790 39,000 38 470 0
We lost coverage of the aircraft here for a total of 14 minutes
2020-08-03 02:37:28 GMT 37.950623 -23.102320 39,000 37 479 0
2020-08-03 02:37:22 GMT 37.940399 -23.112368 39,000 37 479 0
2020-08-03 02:37:13 GMT 37.925812 -23.126631 39,000 37 479 0
2020-08-03 02:37:04 GMT 37.909653 -23.142408 39,000 37 479 0
2020-08-03 02:36:55 GMT 37.892776 -23.158880 39,000 37 479 0
2020-08-03 02:36:44 GMT 37.873535 -23.177647 39,000 37 479 0
2020-08-03 02:36:35 GMT 37.857971 -23.192841 39,000 37 479 0
2020-08-03 02:36:24 GMT 37.839569 -23.210768 39,000 37 479 0
2020-08-03 02:36:14 GMT 37.821274 -23.228561 39,000 37 480 0
2020-08-03 02:36:04 GMT 37.803677 -23.245697 39,000 37 481 0
2020-08-03 02:35:53 GMT 37.784637 -23.264193 39,000 37 481 0
2020-08-03 02:35:43 GMT 37.767426 -23.280964 39,000 37 482 0
2020-08-03 02:35:33 GMT 37.749165 -23.298717 39,000 37 483 0
2020-08-03 02:35:26 GMT 37.735291 -23.312170 39,000 37 484 0
2020-08-03 02:35:22 GMT 37.730217 -23.317167 39,000 37 484 0
2020-08-03 02:35:13 GMT 37.712757 -23.334126 39,000 37 484 0
2020-08-03 02:35:02 GMT 37.694000 -23.352396 39,000 37 485 0
2020-08-03 02:34:52 GMT 37.676376 -23.369497 39,000 37 485 0
2020-08-03 02:34:42 GMT 37.659130 -23.386190 39,000 37 485 0
2020-08-03 02:34:31 GMT 37.639526 -23.405203 39,000 37 485 0
2020-08-03 02:34:22 GMT 37.622269 -23.421858 39,000 37 485 0
2020-08-03 02:34:11 GMT 37.603455 -23.440048 39,000 37 485 0
2020-08-03 02:34:01 GMT 37.586060 -23.456804 39,000 37 485 0
2020-08-03 02:33:51 GMT 37.566833 -23.475388 39,000 37 485 0
2020-08-03 02:33:40 GMT 37.548248 -23.493328 39,000 37 486 0
2020-08-03 02:33:34 GMT 37.536118 -23.505014 39,000 37 487 0
2020-08-03 02:33:30 GMT 37.530834 -23.510145 39,000 37 487 0
2020-08-03 02:33:23 GMT 37.516354 -23.524057 39,000 37 487 0
2020-08-03 02:33:20 GMT 37.512493 -23.527760 39,000 37 487 0
2020-08-03 02:33:10 GMT 37.494415 -23.545162 39,000 37 489 0
2020-08-03 02:32:59 GMT 37.475189 -23.563686 39,000 37 489 0
2020-08-03 02:32:54 GMT 37.462402 -23.576002 39,000 37 490 0
2020-08-03 02:32:49 GMT 37.457062 -23.581160 39,000 37 490 0
2020-08-03 02:32:42 GMT 37.442989 -23.594692 39,000 37 490 0
2020-08-03 02:32:39 GMT 37.439072 -23.598457 39,000 37 490 0
2020-08-03 02:32:29 GMT 37.420624 -23.616222 39,000 37 491 0
2020-08-03 02:32:22 GMT 37.406479 -23.629780 39,000 37 491 0
2020-08-03 02:32:19 GMT 37.402267 -23.633812 39,000 37 491 0
2020-08-03 02:32:08 GMT 37.383224 -23.652103 39,000 37 491 0
2020-08-03 02:31:58 GMT 37.363724 -23.670803 39,000 37 491 0
2020-08-03 02:31:48 GMT 37.346115 -23.687717 39,000 37 491 0
2020-08-03 02:31:38 GMT 37.328098 -23.704973 39,000 37 490 0
2020-08-03 02:31:28 GMT 37.309891 -23.722345 39,000 37 490 0
2020-08-03 02:31:17 GMT 37.291031 -23.740402 39,000 37 490 0
2020-08-03 02:31:06 GMT 37.271584 -23.759008 39,000 37 490 0
2020-08-03 02:30:56 GMT 37.253567 -23.776264 39,000 37 489 0
2020-08-03 02:30:47 GMT 37.236008 -23.792997 39,000 37 489 0
2020-08-03 02:30:36 GMT 37.217239 -23.810879 39,000 37 489 0
2020-08-03 02:30:25 GMT 37.197937 -23.829226 39,000 37 490 0
2020-08-03 02:30:14 GMT 37.177876 -23.848333 39,000 37 490 0
2020-08-03 02:30:05 GMT 37.160976 -23.864454 39,000 37 490 0
2020-08-03 02:29:55 GMT 37.142944 -23.881647 39,000 37 491 0
2020-08-03 02:29:44 GMT 37.123688 -23.899981 39,000 37 491 64
2020-08-03 02:29:35 GMT 37.106602 -23.916222 39,000 37 492 0
2020-08-03 02:29:24 GMT 37.086136 -23.935644 39,000 37 492 0
2020-08-03 02:29:13 GMT 37.066544 -23.954287 39,000 37 492 0
2020-08-03 02:29:04 GMT 37.050751 -23.969246 39,000 37 492 0
2020-08-03 02:28:55 GMT 37.034351 -23.984825 39,000 37 492 0
2020-08-03 02:28:43 GMT 37.012482 -24.005535 39,000 37 491 0
2020-08-03 02:28:33 GMT 36.994904 -24.022133 39,000 37 491 0
2020-08-03 02:28:23 GMT 36.976776 -24.039312 39,000 37 492 -64
2020-08-03 02:28:14 GMT 36.941437 -24.072777 39,000 37 491 0
2020-08-03 02:28:04 GMT 36.941437 -24.072777 39,000 37 491 0
2020-08-03 02:27:54 GMT 36.923309 -24.089920 39,000 37 492 0
2020-08-03 02:27:43 GMT 36.903355 -24.108721 39,000 37 494 0
2020-08-03 02:27:33 GMT 36.885899 -24.125200 39,000 37 494 0
2020-08-03 02:27:21 GMT 36.862701 -24.147074 39,000 37 495 0
2020-08-03 02:27:11 GMT 36.844711 -24.164028 39,000 37 495 0
2020-08-03 02:27:01 GMT 36.826962 -24.180733 39,000 37 496 -64
2020-08-03 02:26:52 GMT 36.808205 -24.198381 39,000 37 496 0
2020-08-03 02:26:44 GMT 36.792374 -24.213224 39,000 37 496 0
2020-08-03 02:26:40 GMT 36.787811 -24.217529 39,000 37 496 0
2020-08-03 02:26:31 GMT 36.771008 -24.233385 39,000 37 496 0
2020-08-03 02:26:22 GMT 36.754852 -24.248463 39,000 37 496 0
2020-08-03 02:26:17 GMT 36.745777 -24.256994 39,000 37 495 0
2020-08-03 02:26:09 GMT 36.732193 -24.269772 39,000 37 495 0
2020-08-03 02:26:00 GMT 36.714798 -24.286137 39,000 37 495 0
2020-08-03 02:25:49 GMT 36.695892 -24.303818 39,000 37 494 0
2020-08-03 02:25:39 GMT 36.676601 -24.321859 39,000 36 494 0
2020-08-03 02:25:34 GMT 36.663891 -24.333782 39,000 36 494 0
2020-08-03 02:25:29 GMT 36.658211 -24.339100 39,000 37 493 0
2020-08-03 02:25:21 GMT 36.643799 -24.352627 39,000 37 493 0
2020-08-03 02:25:10 GMT 36.624367 -24.370773 39,000 37 493 0
2020-08-03 02:25:02 GMT 36.608047 -24.386044 39,000 37 493 0
2020-08-03 02:24:58 GMT 36.598526 -24.394913 39,000 36 494 0
2020-08-03 02:24:50 GMT 36.587173 -24.405556 39,000 36 494 0
2020-08-03 02:24:47 GMT 36.581028 -24.411329 39,000 36 494 0
2020-08-03 02:24:40 GMT 36.569016 -24.422491 39,000 37 494 0
2020-08-03 02:24:36 GMT 36.562317 -24.428787 39,000 37 494 0
2020-08-03 02:24:26 GMT 36.539200 -24.450359 39,000 36 495 0
2020-08-03 02:24:19 GMT 36.531403 -24.457611 39,000 36 495 0
2020-08-03 02:24:14 GMT 36.519562 -24.468613 39,000 36 495 0
2020-08-03 02:24:09 GMT 36.512924 -24.474792 39,000 36 495 0
2020-08-03 02:24:05 GMT 36.502819 -24.484201 39,000 36 496 0
2020-08-03 02:23:59 GMT 36.493423 -24.492931 39,000 36 495 0
2020-08-03 02:23:55 GMT 36.486805 -24.499104 39,000 36 496 0
2020-08-03 02:23:49 GMT 36.475525 -24.509583 39,000 36 495 0
2020-08-03 02:23:45 GMT 36.468044 -24.516577 39,000 36 495 0
2020-08-03 02:23:38 GMT 36.456455 -24.527328 39,000 36 495 0
2020-08-03 02:23:32 GMT 36.443115 -24.539738 39,000 36 495 0
2020-08-03 02:23:28 GMT 36.437832 -24.544626 39,000 36 495 0
2020-08-03 02:23:18 GMT 36.418945 -24.562168 39,000 36 495 0
2020-08-03 02:23:08 GMT 36.400639 -24.579163 39,000 36 495 -64
2020-08-03 02:23:04 GMT 36.392025 -24.587170 39,000 36 495 0
2020-08-03 02:22:58 GMT 36.381737 -24.596695 39,000 36 495 0
2020-08-03 02:22:53 GMT 36.372662 -24.605108 39,000 36 495 0
2020-08-03 02:22:47 GMT 36.362869 -24.614239 39,000 36 495 0
2020-08-03 02:22:41 GMT 36.351105 -24.625111 39,000 36 495 0
2020-08-03 02:22:37 GMT 36.344513 -24.631176 39,000 36 495 0
2020-08-03 02:22:34 GMT 36.337051 -24.638157 39,000 36 495 0
2020-08-03 02:22:27 GMT 36.325317 -24.648996 39,000 36 495 0
2020-08-03 02:22:22 GMT 36.315449 -24.658112 39,000 36 495 0
2020-08-03 02:22:14 GMT 36.297546 -24.674721 39,000 36 495 0
2020-08-03 02:22:07 GMT 36.288586 -24.683006 39,000 36 496 0
2020-08-03 02:22:03 GMT 36.280197 -24.690742 39,000 36 497 0
2020-08-03 02:21:57 GMT 36.269897 -24.700298 39,000 36 497 0
2020-08-03 02:21:52 GMT 36.260010 -24.709396 39,000 36 497 0
2020-08-03 02:21:46 GMT 36.250877 -24.717836 39,000 36 497 0
2020-08-03 02:21:42 GMT 36.241474 -24.726543 39,000 36 497 0
2020-08-03 02:21:36 GMT 36.232304 -24.734959 39,000 36 497 0
2020-08-03 02:21:33 GMT 36.225368 -24.741386 39,000 36 497 0
2020-08-03 02:21:26 GMT 36.213173 -24.752665 39,000 36 498 0
2020-08-03 02:21:22 GMT 36.205353 -24.759865 39,000 36 498 0
2020-08-03 02:21:16 GMT 36.194550 -24.769787 39,000 36 498 0
2020-08-03 02:21:13 GMT 36.186871 -24.776857 39,000 36 498 0
2020-08-03 02:21:02 GMT 36.168156 -24.794155 39,000 36 496 0
2020-08-03 02:20:51 GMT 36.149002 -24.811764 39,000 36 497 0
2020-08-03 02:20:37 GMT 36.121582 -24.837055 39,000 36 496 0
2020-08-03 02:20:32 GMT 36.111145 -24.846668 39,000 36 495 0
2020-08-03 02:20:21 GMT 36.092926 -24.863434 39,000 36 496 0
2020-08-03 02:20:11 GMT 36.074680 -24.880236 39,000 36 495 0
2020-08-03 02:20:01 GMT 36.057175 -24.896336 39,000 36 495 0
2020-08-03 02:19:50 GMT 36.037346 -24.914537 39,000 36 495 0
2020-08-03 02:19:30 GMT 35.997070 -24.951439 39,000 36 494 -64
2020-08-03 02:19:18 GMT 35.975143 -24.971352 39,000 36 494 0
2020-08-03 02:19:10 GMT 35.960857 -24.984312 39,000 36 494 0
2020-08-03 02:18:59 GMT 35.932880 -25.009733 39,000 36 494 0
2020-08-03 02:18:50 GMT 35.924194 -25.017586 39,000 36 494 0
2020-08-03 02:18:31 GMT 35.888718 -25.049858 39,000 36 494 0
2020-08-03 02:18:28 GMT 35.885147 -25.053062 39,000 36 494 0
2020-08-03 02:18:16 GMT 35.862865 -25.073315 39,000 36 498 0
2020-08-03 02:17:56 GMT 35.823578 -25.108961 39,000 36 498 0
2020-08-03 02:17:46 GMT 35.806957 -25.123980 39,000 36 499 0
2020-08-03 02:17:16 GMT 35.751652 -25.173944 39,000 36 496 0
2020-08-03 02:16:45 GMT 35.694214 -25.225754 39,000 36 497 0
2020-08-03 02:16:36 GMT 35.677048 -25.241261 39,000 36 496 0
2020-08-03 02:16:28 GMT 35.663296 -25.253653 39,000 36 496 0
2020-08-03 02:16:04 GMT 35.617722 -25.294704 39,000 36 495 0
2020-08-03 02:15:54 GMT 35.599091 -25.311470 39,000 36 495 0
2020-08-03 02:15:45 GMT 35.581512 -25.327263 39,000 36 495 0
2020-08-03 02:15:26 GMT 35.548920 -25.356560 39,000 36 494 0
2020-08-03 02:15:03 GMT 35.505856 -25.395130 39,000 36 493 0
2020-08-03 02:14:54 GMT 35.486984 -25.412006 39,000 36 493 0
2020-08-03 02:14:42 GMT 35.466335 -25.430546 39,000 36 494 0
2020-08-03 02:14:13 GMT 35.410892 -25.480101 39,000 36 495 0
2020-08-03 02:14:01 GMT 35.391338 -25.497574 39,000 36 496 0
2020-08-03 02:13:51 GMT 35.372360 -25.514488 39,000 36 496 0
2020-08-03 02:13:30 GMT 35.333569 -25.549114 39,000 36 497 0
2020-08-03 02:13:05 GMT 35.279755 -25.597115 39,000 36 497 0
2020-08-03 02:12:58 GMT 35.274399 -25.601864 39,000 36 497 0
2020-08-03 02:12:43 GMT 35.234894 -25.636997 39,000 36 496 0
2020-08-03 02:12:31 GMT 35.220165 -25.650043 39,000 36 496 0
2020-08-03 02:12:27 GMT 35.215137 -25.654507 39,000 36 496 0
2020-08-03 02:12:00 GMT 35.165863 -25.698256 39,000 35 496 0
2020-08-03 02:11:30 GMT 35.110630 -25.747204 39,000 35 496 0
2020-08-03 02:11:25 GMT 35.101830 -25.754929 39,000 35 496 0
2020-08-03 02:11:14 GMT 35.081303 -25.773067 39,000 35 496 0
2020-08-03 02:11:07 GMT 35.067940 -25.784912 39,000 35 496 0
2020-08-03 02:10:58 GMT 35.050827 -25.800047 39,000 36 496 0
2020-08-03 02:10:55 GMT 35.047272 -25.803165 39,000 36 496 -64
2020-08-03 02:10:47 GMT 35.029312 -25.819048 39,000 35 495 0
2020-08-03 02:10:30 GMT 35.000301 -25.844650 39,000 35 496 0
2020-08-03 02:10:10 GMT 34.962204 -25.878241 39,000 35 496 0
2020-08-03 02:10:06 GMT 34.951050 -25.888138 39,000 35 497 0
2020-08-03 02:09:54 GMT 34.932240 -25.904675 39,000 35 497 0
2020-08-03 02:09:43 GMT 34.912224 -25.922298 39,000 35 498 64
2020-08-03 02:09:32 GMT 34.891880 -25.940151 39,000 35 499 0
2020-08-03 02:09:15 GMT 34.859806 -25.968361 39,000 35 499 0
2020-08-03 02:08:54 GMT 34.818558 -26.004583 39,000 35 499 0
2020-08-03 02:08:49 GMT 34.809574 -26.012478 39,000 35 499 0
2020-08-03 02:08:44 GMT 34.798782 -26.021902 39,000 35 499 0
2020-08-03 02:08:12 GMT 34.740864 -26.072617 39,000 35 499 0
2020-08-03 02:08:09 GMT 34.733231 -26.079302 39,000 35 499 -64
2020-08-03 02:08:02 GMT 34.723801 -26.087542 39,000 35 498 0
2020-08-03 02:07:52 GMT 34.703156 -26.105646 39,000 35 498 0
2020-08-03 02:07:41 GMT 34.684296 -26.122126 39,000 35 498 0
2020-08-03 02:07:29 GMT 34.660191 -26.143169 39,000 35 499 0
2020-08-03 02:06:59 GMT 34.602676 -26.193369 39,000 35 500 0
2020-08-03 02:06:31 GMT 34.551407 -26.237986 39,000 35 502 64
2020-08-03 02:06:11 GMT 34.514557 -26.270048 39,000 35 502 0
2020-08-03 02:05:45 GMT 34.464390 -26.313629 39,000 35 502 0
2020-08-03 02:05:21 GMT 34.417465 -26.354313 39,000 35 500 0
2020-08-03 02:05:13 GMT 34.404510 -26.365505 39,000 35 500 0
2020-08-03 02:04:46 GMT 34.353642 -26.409531 39,000 35 499 0
2020-08-03 02:04:20 GMT 34.305229 -26.451416 39,000 35 499 0
2020-08-03 02:04:00 GMT 34.268032 -26.483517 39,000 35 500 0
2020-08-03 02:03:30 GMT 34.211380 -26.532375 39,000 35 501 0
2020-08-03 02:03:00 GMT 34.154160 -26.581644 39,000 35 503 0
2020-08-03 02:02:28 GMT 34.092857 -26.634235 39,000 35 503 0
2020-08-03 02:01:59 GMT 34.038895 -26.680523 39,000 35 503 0
2020-08-03 02:01:30 GMT 33.982452 -26.728895 39,000 35 504 0
2020-08-03 02:01:00 GMT 33.927063 -26.776203 37,000 37 477 0
We lost coverage of the aircraft here for a total of 284 minutes
2020-08-02 21:16:58 GMT -1.733000 -43.977940 37,000 17 477 0
2020-08-02 21:16:31 GMT -1.788816 -43.995033 37,000 17 478 0
2020-08-02 21:15:29 GMT -1.920959 -44.035530 37,000 17 479 0
2020-08-02 21:15:20 GMT -1.939832 -44.041302 37,025 17 479 -64
2020-08-02 21:15:10 GMT -1.962616 -44.048286 37,000 17 478 0
2020-08-02 21:14:56 GMT -1.988937 -44.056293 37,000 17 478 0
2020-08-02 21:14:49 GMT -2.007100 -44.061852 37,000 17 478 0
2020-08-02 21:14:37 GMT -2.030640 -44.069096 37,000 17 477 0
2020-08-02 21:14:27 GMT -2.052704 -44.075798 37,000 17 477 0
2020-08-02 21:14:16 GMT -2.074368 -44.082405 37,000 17 477 -64
2020-08-02 21:14:06 GMT -2.097565 -44.089531 37,000 17 477 0
2020-08-02 21:13:55 GMT -2.117894 -44.095711 37,000 16 476 0
2020-08-02 21:13:46 GMT -2.139867 -44.102390 37,000 17 477 -64
2020-08-02 21:13:35 GMT -2.162072 -44.109161 37,000 17 477 64
2020-08-02 21:13:25 GMT -2.184417 -44.116028 37,000 17 476 0
2020-08-02 21:13:13 GMT -2.207062 -44.123001 37,000 17 476 0
2020-08-02 21:13:04 GMT -2.229584 -44.129890 37,000 17 476 0
2020-08-02 21:12:52 GMT -2.252060 -44.136784 37,000 17 476 0
2020-08-02 21:12:42 GMT -2.275360 -44.143951 37,000 17 476 0
2020-08-02 21:12:32 GMT -2.294979 -44.149933 37,000 17 476 0
2020-08-02 21:12:22 GMT -2.318115 -44.157036 37,000 17 476 -64
2020-08-02 21:12:11 GMT -2.339264 -44.163456 37,000 16 475 64
2020-08-02 21:11:59 GMT -2.365448 -44.171417 37,000 16 475 0
2020-08-02 21:11:48 GMT -2.386268 -44.177635 37,000 16 475 -64
2020-08-02 21:11:40 GMT -2.407030 -44.183838 37,000 16 474 64
2020-08-02 21:11:29 GMT -2.428304 -44.190231 37,025 17 474 64
2020-08-02 21:11:19 GMT -2.450043 -44.196926 37,025 17 474 0
2020-08-02 21:11:08 GMT -2.471924 -44.203823 37,025 17 475 0
2020-08-02 21:10:55 GMT -2.498365 -44.212158 37,025 16 476 -64
2020-08-02 21:10:47 GMT -2.516556 -44.217457 37,000 15 476 0
2020-08-02 21:10:36 GMT -2.539032 -44.223137 37,000 13 476 -64
2020-08-02 21:10:26 GMT -2.562189 -44.228069 37,000 11 476 0
2020-08-02 21:10:15 GMT -2.585046 -44.232044 37,000 8 476 64
2020-08-02 21:10:06 GMT -2.608043 -44.235123 37,000 6 477 -64
2020-08-02 21:09:54 GMT -2.630630 -44.237335 36,975 4 477 64
2020-08-02 21:09:45 GMT -2.653656 -44.238544 37,000 1 478 0
2020-08-02 21:09:33 GMT -2.677643 -44.238873 37,000 0 478 0
2020-08-02 21:09:24 GMT -2.700027 -44.238686 37,000 0 478 -64
2020-08-02 21:09:12 GMT -2.723632 -44.238533 37,000 0 478 0
2020-08-02 21:09:03 GMT -2.746170 -44.238312 37,000 0 478 0
2020-08-02 21:08:51 GMT -2.770137 -44.238060 37,000 0 478 0
2020-08-02 21:08:42 GMT -2.793549 -44.237801 37,000 0 478 64
2020-08-02 21:08:31 GMT -2.816597 -44.237537 37,000 0 478 -64
2020-08-02 21:08:21 GMT -2.840245 -44.237255 37,000 0 478 0
2020-08-02 21:08:10 GMT -2.862396 -44.237007 37,000 0 478 64
2020-08-02 21:08:00 GMT -2.886566 -44.236774 37,000 0 478 64
2020-08-02 21:07:49 GMT -2.909271 -44.236496 37,000 0 478 0
2020-08-02 21:07:39 GMT -2.932558 -44.236259 37,025 0 478 0
2020-08-02 21:07:28 GMT -2.955597 -44.235985 37,000 0 477 0
2020-08-02 21:07:17 GMT -2.979309 -44.235661 37,000 0 477 0
2020-08-02 21:07:07 GMT -3.001968 -44.235409 37,000 0 476 64
2020-08-02 21:06:56 GMT -3.026001 -44.235191 37,000 0 476 0
2020-08-02 21:06:47 GMT -3.048799 -44.234982 37,000 0 475 0
2020-08-02 21:06:35 GMT -3.071749 -44.234745 37,000 0 476 0
2020-08-02 21:06:26 GMT -3.095258 -44.234509 37,000 0 476 0
2020-08-02 21:06:15 GMT -3.117743 -44.234272 37,000 0 476 0
2020-08-02 21:06:05 GMT -3.140945 -44.234077 37,000 0 477 64
2020-08-02 21:05:53 GMT -3.164841 -44.233845 37,000 0 477 0
2020-08-02 21:05:44 GMT -3.187478 -44.233608 37,025 0 476 64
2020-08-02 21:05:32 GMT -3.210987 -44.233418 37,000 0 476 -64
2020-08-02 21:05:23 GMT -3.234124 -44.233185 37,000 0 475 128
2020-08-02 21:05:12 GMT -3.257034 -44.232910 37,025 0 474 -64
2020-08-02 21:05:02 GMT -3.279739 -44.232632 37,000 0 474 0
2020-08-02 21:04:51 GMT -3.303021 -44.232330 36,975 0 474 0
2020-08-02 21:04:41 GMT -3.325928 -44.232029 37,000 0 474 0
2020-08-02 21:04:30 GMT -3.348968 -44.231762 37,000 0 474 0
2020-08-02 21:04:20 GMT -3.372574 -44.231564 37,000 0 474 0
2020-08-02 21:04:09 GMT -3.394913 -44.231331 37,000 0 473 0
2020-08-02 21:03:59 GMT -3.418098 -44.231052 37,000 0 473 0
2020-08-02 21:03:48 GMT -3.440735 -44.230816 37,000 0 472 0
2020-08-02 21:03:37 GMT -3.464045 -44.230530 37,000 0 472 0
2020-08-02 21:03:27 GMT -3.486995 -44.230293 37,000 0 472 0
2020-08-02 21:03:16 GMT -3.510318 -44.230057 37,000 0 472 0
2020-08-02 21:03:06 GMT -3.532928 -44.229839 37,000 0 472 0
2020-08-02 21:02:55 GMT -3.556641 -44.229607 37,000 0 472 0
2020-08-02 21:02:46 GMT -3.578936 -44.229301 37,000 0 472 0
2020-08-02 21:02:34 GMT -3.601913 -44.229004 37,000 0 473 64
2020-08-02 21:02:25 GMT -3.625814 -44.228683 37,000 0 473 -64
2020-08-02 21:02:13 GMT -3.648651 -44.228443 37,000 0 473 0
2020-08-02 21:02:04 GMT -3.671082 -44.228210 37,000 0 472 0
2020-08-02 21:01:52 GMT -3.694060 -44.227974 37,000 0 472 0
2020-08-02 21:01:43 GMT -3.717057 -44.227783 37,000 0 472 0
2020-08-02 21:01:32 GMT -3.739655 -44.227558 37,000 0 472 0
2020-08-02 21:01:22 GMT -3.762772 -44.227325 37,000 0 471 -64
2020-08-02 21:01:11 GMT -3.785660 -44.227047 37,000 0 471 0
2020-08-02 21:01:01 GMT -3.808777 -44.226814 37,000 0 471 0
2020-08-02 21:00:50 GMT -3.830978 -44.226582 37,000 0 471 0
2020-08-02 21:00:40 GMT -3.854828 -44.226303 37,000 0 472 0
2020-08-02 21:00:29 GMT -3.877075 -44.226070 37,000 0 472 0
2020-08-02 21:00:19 GMT -3.900421 -44.225788 37,000 0 472 -64
2020-08-02 21:00:08 GMT -3.923935 -44.225510 37,000 0 472 0
2020-08-02 20:59:57 GMT -3.946198 -44.225323 37,000 0 472 0
2020-08-02 20:59:47 GMT -3.969452 -44.225044 37,000 0 471 0
2020-08-02 20:59:36 GMT -3.991882 -44.224812 37,000 0 471 0
2020-08-02 20:59:26 GMT -4.014954 -44.224579 37,000 0 470 0
2020-08-02 20:59:15 GMT -4.037988 -44.224377 37,000 0 470 0
2020-08-02 20:59:06 GMT -4.060318 -44.224159 37,000 0 470 0
2020-08-02 20:58:54 GMT -4.084028 -44.223900 37,000 0 469 0
2020-08-02 20:58:45 GMT -4.106186 -44.223648 37,000 0 469 -64
2020-08-02 20:58:33 GMT -4.129323 -44.223381 37,000 0 469 0
2020-08-02 20:58:24 GMT -4.152374 -44.223137 36,975 0 470 0
2020-08-02 20:58:12 GMT -4.175550 -44.222858 37,000 0 470 64
2020-08-02 20:58:03 GMT -4.197876 -44.222576 37,000 0 470 0
2020-08-02 20:57:52 GMT -4.220398 -44.222343 37,000 0 470 0
2020-08-02 20:57:42 GMT -4.243795 -44.222103 37,000 0 470 0
2020-08-02 20:57:30 GMT -4.267211 -44.221867 37,025 0 470 0
2020-08-02 20:57:21 GMT -4.288651 -44.221600 37,000 0 470 0
2020-08-02 20:57:09 GMT -4.312363 -44.221321 37,000 0 469 0
2020-08-02 20:57:00 GMT -4.335037 -44.221062 37,000 0 469 0
2020-08-02 20:56:49 GMT -4.357848 -44.220821 37,000 0 469 0
2020-08-02 20:56:39 GMT -4.381171 -44.220539 37,000 0 469 -64
2020-08-02 20:56:28 GMT -4.403469 -44.220303 37,000 0 469 0
2020-08-02 20:56:17 GMT -4.426300 -44.220016 37,000 0 469 0
2020-08-02 20:56:07 GMT -4.448959 -44.219784 37,000 0 470 0
2020-08-02 20:55:56 GMT -4.471664 -44.219551 37,025 0 470 0
2020-08-02 20:55:46 GMT -4.495010 -44.219273 37,000 0 470 0
2020-08-02 20:55:35 GMT -4.517336 -44.219025 37,025 0 470 0
2020-08-02 20:55:26 GMT -4.540891 -44.218739 37,000 0 469 0
2020-08-02 20:55:14 GMT -4.562864 -44.218502 37,000 0 469 0
2020-08-02 20:55:05 GMT -4.585693 -44.218246 37,000 0 469 0
2020-08-02 20:54:53 GMT -4.609044 -44.217983 37,000 0 469 0
2020-08-02 20:54:44 GMT -4.632019 -44.217735 36,975 0 469 64
2020-08-02 20:54:32 GMT -4.654816 -44.217457 37,000 0 468 0
2020-08-02 20:54:23 GMT -4.677615 -44.217224 37,000 0 468 -64
2020-08-02 20:54:11 GMT -4.700043 -44.216991 37,000 0 468 0
2020-08-02 20:54:02 GMT -4.723143 -44.216702 37,000 0 468 0
2020-08-02 20:53:50 GMT -4.745768 -44.216373 37,000 0 469 0
2020-08-02 20:53:40 GMT -4.770487 -44.216087 37,000 0 470 0
2020-08-02 20:53:30 GMT -4.791249 -44.215801 37,000 0 470 0
2020-08-02 20:53:20 GMT -4.813781 -44.215569 37,000 0 470 0
2020-08-02 20:53:09 GMT -4.836182 -44.215363 37,000 0 471 0
2020-08-02 20:52:59 GMT -4.860306 -44.215084 37,000 0 471 0
2020-08-02 20:52:48 GMT -4.883286 -44.214851 37,000 0 472 0
2020-08-02 20:52:37 GMT -4.905533 -44.214619 37,000 0 472 0
2020-08-02 20:52:27 GMT -4.928650 -44.214336 37,000 0 472 0
2020-08-02 20:52:16 GMT -4.951249 -44.214050 37,000 0 471 0
2020-08-02 20:52:06 GMT -4.974526 -44.213768 37,000 0 471 -64
2020-08-02 20:51:55 GMT -4.997429 -44.213531 37,000 0 471 64
2020-08-02 20:51:46 GMT -5.020523 -44.213314 37,000 0 470 64
2020-08-02 20:51:34 GMT -5.043749 -44.213009 37,000 0 470 0
2020-08-02 20:51:25 GMT -5.066140 -44.212727 37,025 0 471 0
2020-08-02 20:51:13 GMT -5.088867 -44.212521 37,000 0 471 0
2020-08-02 20:51:04 GMT -5.111618 -44.212242 37,000 0 472 0
2020-08-02 20:50:52 GMT -5.135131 -44.211967 37,000 0 472 0
2020-08-02 20:50:43 GMT -5.158447 -44.211685 37,000 0 473 0
2020-08-02 20:50:32 GMT -5.180938 -44.211449 37,000 0 473 0
2020-08-02 20:50:22 GMT -5.204636 -44.211170 37,000 0 473 0
2020-08-02 20:50:10 GMT -5.228714 -44.210941 37,000 0 472 0
2020-08-02 20:49:43 GMT -5.287124 -44.210312 37,000 0 472 -64
2020-08-02 20:49:40 GMT -5.297086 -44.210217 37,000 0 472 64
2020-08-02 20:49:24 GMT -5.329880 -44.209778 37,000 0 472 0
2020-08-02 20:49:19 GMT -5.343201 -44.209591 37,000 0 472 0
2020-08-02 20:49:08 GMT -5.364633 -44.209316 37,025 0 472 0
2020-08-02 20:48:57 GMT -5.388657 -44.209030 37,000 0 472 0
2020-08-02 20:48:06 GMT -5.498932 -44.207867 37,000 0 471 0
2020-08-02 20:47:51 GMT -5.532361 -44.207516 37,000 0 471 0
2020-08-02 20:47:39 GMT -5.560501 -44.207123 37,000 0 471 0
2020-08-02 20:47:33 GMT -5.571716 -44.206982 37,000 0 470 0
2020-08-02 20:47:24 GMT -5.593717 -44.206711 37,000 0 470 -128
2020-08-02 20:47:13 GMT -5.616714 -44.206474 37,000 0 469 128
2020-08-02 20:47:03 GMT -5.639012 -44.206238 37,000 0 469 0
2020-08-02 20:46:52 GMT -5.662195 -44.205956 37,000 0 469 -64
2020-08-02 20:46:42 GMT -5.684830 -44.205727 37,000 0 469 64

Making use of Plane Finder data

You are free to use the raw flight data, aircraft information and images provided in this report for your own purposes provided the data is correctly attributed to Plane Finder. We ask that you please credit Plane Finder and link to planefinder.net in close proximity to the content.

Optionally one of the following logos (no smaller then 150x24px) can be used and must link to planefinder.net

Embedding the Plane Finder map

You are welcome to embed the Plane Finder playback map on your website to offer visitors a more interactive experience. We suggest using the following HTML code:

<iframe src="//planefinder.net/data/report/AF457-F-HTYA-7700-squawk-2020-08-03/map" width="800" height="600" seamless="seamless"></iframe>

Where our data comes from

Plane Finder has a global network of data feeds and antenna radars that receive data broadcast directly from aircraft. The primary technologies used are ADS-B and MLAT. We also show feeds from the FAA and a FLARM glider feed.

Click here to find out more about the Plane Finder network.

How we collect our data